<?xml version="1.0" encoding="UTF-8" standalone="no" ?>
<gpx xmlns="http://www.topografix.com/GPX/1/1" xmlns:xsi="http://www.w3.org/2001/XMLSchema-instance" xsi:schemaLocation="http://www.topografix.com/GPX/1/1 http://www.topografix.com/GPX/1/1/gpx.xsd" version="1.1" creator="VisuGPX - https://www.visugpx.com">
  <metadata>
    <name>Marche Nordique</name>
    <desc><![CDATA[Parcours du 13/10/2012 de 8h à 10h]]></desc>
  </metadata>
  <trk>
    <name><![CDATA[13/10/12 07:55]]></name>
    <desc><![CDATA[]]></desc>
    <trkseg>
      <trkpt lat="47.2816" lon="4.97276">
        <ele>319</ele>
        <time>2012-10-13T05:59:02Z</time>
      </trkpt>
      <trkpt lat="47.28166" lon="4.97282">
        <ele>326</ele>
        <time>2012-10-13T05:59:04Z</time>
      </trkpt>
      <trkpt lat="47.28172" lon="4.97285">
        <ele>334</ele>
        <time>2012-10-13T05:59:07Z</time>
      </trkpt>
      <trkpt lat="47.28179" lon="4.97289">
        <ele>335</ele>
        <time>2012-10-13T05:59:09Z</time>
      </trkpt>
      <trkpt lat="47.28184" lon="4.97293">
        <ele>337</ele>
        <time>2012-10-13T05:59:10Z</time>
      </trkpt>
      <trkpt lat="47.28189" lon="4.97295">
        <ele>336</ele>
        <time>2012-10-13T05:59:11Z</time>
      </trkpt>
      <trkpt lat="47.28194" lon="4.97296">
        <ele>327</ele>
        <time>2012-10-13T05:59:13Z</time>
      </trkpt>
      <trkpt lat="47.28194" lon="4.97296">
        <ele>327</ele>
        <time>2012-10-13T05:59:13Z</time>
      </trkpt>
      <trkpt lat="47.28194" lon="4.97296">
        <ele>327</ele>
        <time>2012-10-13T06:00:41Z</time>
      </trkpt>
      <trkpt lat="47.28201" lon="4.97291">
        <ele>357</ele>
        <time>2012-10-13T06:02:23Z</time>
      </trkpt>
      <trkpt lat="47.28206" lon="4.97294">
        <ele>362</ele>
        <time>2012-10-13T06:02:30Z</time>
      </trkpt>
      <trkpt lat="47.28209" lon="4.97288">
        <ele>361</ele>
        <time>2012-10-13T06:02:41Z</time>
      </trkpt>
      <trkpt lat="47.28209" lon="4.97288">
        <ele>361</ele>
        <time>2012-10-13T06:02:41Z</time>
      </trkpt>
      <trkpt lat="47.28209" lon="4.97288">
        <ele>356</ele>
        <time>2012-10-13T06:06:11Z</time>
      </trkpt>
      <trkpt lat="47.28203" lon="4.97287">
        <ele>353</ele>
        <time>2012-10-13T06:07:36Z</time>
      </trkpt>
      <trkpt lat="47.28199" lon="4.97284">
        <ele>355</ele>
        <time>2012-10-13T06:07:44Z</time>
      </trkpt>
      <trkpt lat="47.28201" lon="4.97278">
        <ele>355</ele>
        <time>2012-10-13T06:08:23Z</time>
      </trkpt>
      <trkpt lat="47.28204" lon="4.97272">
        <ele>353</ele>
        <time>2012-10-13T06:08:27Z</time>
      </trkpt>
      <trkpt lat="47.28209" lon="4.9727">
        <ele>354</ele>
        <time>2012-10-13T06:08:30Z</time>
      </trkpt>
      <trkpt lat="47.28212" lon="4.97263">
        <ele>354</ele>
        <time>2012-10-13T06:08:36Z</time>
      </trkpt>
      <trkpt lat="47.28213" lon="4.97255">
        <ele>357</ele>
        <time>2012-10-13T06:08:40Z</time>
      </trkpt>
      <trkpt lat="47.28216" lon="4.97249">
        <ele>357</ele>
        <time>2012-10-13T06:08:43Z</time>
      </trkpt>
      <trkpt lat="47.28218" lon="4.97242">
        <ele>357</ele>
        <time>2012-10-13T06:08:47Z</time>
      </trkpt>
      <trkpt lat="47.2822" lon="4.97235">
        <ele>358</ele>
        <time>2012-10-13T06:08:52Z</time>
      </trkpt>
      <trkpt lat="47.28225" lon="4.9723">
        <ele>359</ele>
        <time>2012-10-13T06:08:55Z</time>
      </trkpt>
      <trkpt lat="47.28226" lon="4.97222">
        <ele>358</ele>
        <time>2012-10-13T06:08:58Z</time>
      </trkpt>
      <trkpt lat="47.2823" lon="4.97217">
        <ele>359</ele>
        <time>2012-10-13T06:09:01Z</time>
      </trkpt>
      <trkpt lat="47.28232" lon="4.9721">
        <ele>359</ele>
        <time>2012-10-13T06:09:05Z</time>
      </trkpt>
      <trkpt lat="47.28229" lon="4.97202">
        <ele>359</ele>
        <time>2012-10-13T06:09:08Z</time>
      </trkpt>
      <trkpt lat="47.28226" lon="4.97195">
        <ele>357</ele>
        <time>2012-10-13T06:09:11Z</time>
      </trkpt>
      <trkpt lat="47.28229" lon="4.97188">
        <ele>359</ele>
        <time>2012-10-13T06:09:14Z</time>
      </trkpt>
      <trkpt lat="47.28233" lon="4.97186">
        <ele>359</ele>
        <time>2012-10-13T06:09:16Z</time>
      </trkpt>
      <trkpt lat="47.2823" lon="4.9718">
        <ele>360</ele>
        <time>2012-10-13T06:09:20Z</time>
      </trkpt>
      <trkpt lat="47.28234" lon="4.97175">
        <ele>360</ele>
        <time>2012-10-13T06:09:24Z</time>
      </trkpt>
      <trkpt lat="47.28233" lon="4.97165">
        <ele>360</ele>
        <time>2012-10-13T06:09:28Z</time>
      </trkpt>
      <trkpt lat="47.2823" lon="4.97159">
        <ele>359</ele>
        <time>2012-10-13T06:09:32Z</time>
      </trkpt>
      <trkpt lat="47.28234" lon="4.97152">
        <ele>362</ele>
        <time>2012-10-13T06:09:41Z</time>
      </trkpt>
      <trkpt lat="47.28234" lon="4.97144">
        <ele>362</ele>
        <time>2012-10-13T06:09:43Z</time>
      </trkpt>
      <trkpt lat="47.28234" lon="4.97133">
        <ele>361</ele>
        <time>2012-10-13T06:09:46Z</time>
      </trkpt>
      <trkpt lat="47.28237" lon="4.97128">
        <ele>361</ele>
        <time>2012-10-13T06:09:48Z</time>
      </trkpt>
      <trkpt lat="47.2824" lon="4.97124">
        <ele>361</ele>
        <time>2012-10-13T06:09:50Z</time>
      </trkpt>
      <trkpt lat="47.2824" lon="4.97116">
        <ele>362</ele>
        <time>2012-10-13T06:09:53Z</time>
      </trkpt>
      <trkpt lat="47.28239" lon="4.97109">
        <ele>363</ele>
        <time>2012-10-13T06:09:56Z</time>
      </trkpt>
      <trkpt lat="47.2824" lon="4.97101">
        <ele>363</ele>
        <time>2012-10-13T06:09:59Z</time>
      </trkpt>
      <trkpt lat="47.28244" lon="4.97095">
        <ele>364</ele>
        <time>2012-10-13T06:10:03Z</time>
      </trkpt>
      <trkpt lat="47.28244" lon="4.97086">
        <ele>365</ele>
        <time>2012-10-13T06:10:07Z</time>
      </trkpt>
      <trkpt lat="47.28246" lon="4.97079">
        <ele>366</ele>
        <time>2012-10-13T06:10:10Z</time>
      </trkpt>
      <trkpt lat="47.28245" lon="4.9707">
        <ele>366</ele>
        <time>2012-10-13T06:10:14Z</time>
      </trkpt>
      <trkpt lat="47.28246" lon="4.9706">
        <ele>366</ele>
        <time>2012-10-13T06:10:17Z</time>
      </trkpt>
      <trkpt lat="47.28247" lon="4.97052">
        <ele>366</ele>
        <time>2012-10-13T06:10:20Z</time>
      </trkpt>
      <trkpt lat="47.2825" lon="4.97046">
        <ele>365</ele>
        <time>2012-10-13T06:10:23Z</time>
      </trkpt>
      <trkpt lat="47.28249" lon="4.97038">
        <ele>364</ele>
        <time>2012-10-13T06:10:26Z</time>
      </trkpt>
      <trkpt lat="47.28253" lon="4.97032">
        <ele>365</ele>
        <time>2012-10-13T06:10:29Z</time>
      </trkpt>
      <trkpt lat="47.28255" lon="4.97024">
        <ele>365</ele>
        <time>2012-10-13T06:10:33Z</time>
      </trkpt>
      <trkpt lat="47.28259" lon="4.97018">
        <ele>366</ele>
        <time>2012-10-13T06:10:36Z</time>
      </trkpt>
      <trkpt lat="47.28261" lon="4.97012">
        <ele>368</ele>
        <time>2012-10-13T06:10:39Z</time>
      </trkpt>
      <trkpt lat="47.2826" lon="4.97003">
        <ele>368</ele>
        <time>2012-10-13T06:10:43Z</time>
      </trkpt>
      <trkpt lat="47.2826" lon="4.96995">
        <ele>368</ele>
        <time>2012-10-13T06:10:46Z</time>
      </trkpt>
      <trkpt lat="47.28263" lon="4.96989">
        <ele>369</ele>
        <time>2012-10-13T06:10:53Z</time>
      </trkpt>
      <trkpt lat="47.28266" lon="4.96981">
        <ele>368</ele>
        <time>2012-10-13T06:10:55Z</time>
      </trkpt>
      <trkpt lat="47.28266" lon="4.96972">
        <ele>367</ele>
        <time>2012-10-13T06:10:58Z</time>
      </trkpt>
      <trkpt lat="47.28264" lon="4.96964">
        <ele>366</ele>
        <time>2012-10-13T06:11:01Z</time>
      </trkpt>
      <trkpt lat="47.28266" lon="4.96956">
        <ele>365</ele>
        <time>2012-10-13T06:11:05Z</time>
      </trkpt>
      <trkpt lat="47.28266" lon="4.96947">
        <ele>365</ele>
        <time>2012-10-13T06:11:08Z</time>
      </trkpt>
      <trkpt lat="47.28264" lon="4.9694">
        <ele>364</ele>
        <time>2012-10-13T06:11:11Z</time>
      </trkpt>
      <trkpt lat="47.28267" lon="4.96933">
        <ele>366</ele>
        <time>2012-10-13T06:11:15Z</time>
      </trkpt>
      <trkpt lat="47.2827" lon="4.96927">
        <ele>366</ele>
        <time>2012-10-13T06:11:18Z</time>
      </trkpt>
      <trkpt lat="47.28268" lon="4.9692">
        <ele>365</ele>
        <time>2012-10-13T06:11:20Z</time>
      </trkpt>
      <trkpt lat="47.28269" lon="4.96914">
        <ele>364</ele>
        <time>2012-10-13T06:11:24Z</time>
      </trkpt>
      <trkpt lat="47.2827" lon="4.96906">
        <ele>364</ele>
        <time>2012-10-13T06:11:29Z</time>
      </trkpt>
      <trkpt lat="47.28273" lon="4.96898">
        <ele>365</ele>
        <time>2012-10-13T06:11:33Z</time>
      </trkpt>
      <trkpt lat="47.28274" lon="4.9689">
        <ele>364</ele>
        <time>2012-10-13T06:11:36Z</time>
      </trkpt>
      <trkpt lat="47.28274" lon="4.96881">
        <ele>365</ele>
        <time>2012-10-13T06:11:40Z</time>
      </trkpt>
      <trkpt lat="47.28274" lon="4.96872">
        <ele>365</ele>
        <time>2012-10-13T06:11:43Z</time>
      </trkpt>
      <trkpt lat="47.28275" lon="4.96865">
        <ele>367</ele>
        <time>2012-10-13T06:11:48Z</time>
      </trkpt>
      <trkpt lat="47.28277" lon="4.96857">
        <ele>368</ele>
        <time>2012-10-13T06:11:51Z</time>
      </trkpt>
      <trkpt lat="47.28278" lon="4.9685">
        <ele>368</ele>
        <time>2012-10-13T06:11:55Z</time>
      </trkpt>
      <trkpt lat="47.28277" lon="4.96843">
        <ele>370</ele>
        <time>2012-10-13T06:11:58Z</time>
      </trkpt>
      <trkpt lat="47.28278" lon="4.96834">
        <ele>368</ele>
        <time>2012-10-13T06:12:02Z</time>
      </trkpt>
      <trkpt lat="47.28277" lon="4.96826">
        <ele>368</ele>
        <time>2012-10-13T06:12:05Z</time>
      </trkpt>
      <trkpt lat="47.28278" lon="4.96819">
        <ele>368</ele>
        <time>2012-10-13T06:12:09Z</time>
      </trkpt>
      <trkpt lat="47.28283" lon="4.96814">
        <ele>369</ele>
        <time>2012-10-13T06:12:13Z</time>
      </trkpt>
      <trkpt lat="47.28285" lon="4.96808">
        <ele>370</ele>
        <time>2012-10-13T06:12:16Z</time>
      </trkpt>
      <trkpt lat="47.28288" lon="4.96803">
        <ele>371</ele>
        <time>2012-10-13T06:12:18Z</time>
      </trkpt>
      <trkpt lat="47.28286" lon="4.96797">
        <ele>371</ele>
        <time>2012-10-13T06:12:20Z</time>
      </trkpt>
      <trkpt lat="47.28289" lon="4.96791">
        <ele>372</ele>
        <time>2012-10-13T06:12:23Z</time>
      </trkpt>
      <trkpt lat="47.28289" lon="4.96783">
        <ele>373</ele>
        <time>2012-10-13T06:12:27Z</time>
      </trkpt>
      <trkpt lat="47.28294" lon="4.96777">
        <ele>375</ele>
        <time>2012-10-13T06:12:31Z</time>
      </trkpt>
      <trkpt lat="47.28298" lon="4.96774">
        <ele>376</ele>
        <time>2012-10-13T06:12:34Z</time>
      </trkpt>
      <trkpt lat="47.283" lon="4.96768">
        <ele>376</ele>
        <time>2012-10-13T06:12:37Z</time>
      </trkpt>
      <trkpt lat="47.28303" lon="4.96761">
        <ele>375</ele>
        <time>2012-10-13T06:12:41Z</time>
      </trkpt>
      <trkpt lat="47.28302" lon="4.96753">
        <ele>376</ele>
        <time>2012-10-13T06:12:45Z</time>
      </trkpt>
      <trkpt lat="47.28304" lon="4.96747">
        <ele>377</ele>
        <time>2012-10-13T06:12:48Z</time>
      </trkpt>
      <trkpt lat="47.28307" lon="4.96741">
        <ele>378</ele>
        <time>2012-10-13T06:12:52Z</time>
      </trkpt>
      <trkpt lat="47.2831" lon="4.96735">
        <ele>379</ele>
        <time>2012-10-13T06:12:55Z</time>
      </trkpt>
      <trkpt lat="47.28309" lon="4.96727">
        <ele>379</ele>
        <time>2012-10-13T06:12:58Z</time>
      </trkpt>
      <trkpt lat="47.28307" lon="4.96716">
        <ele>379</ele>
        <time>2012-10-13T06:13:02Z</time>
      </trkpt>
      <trkpt lat="47.28305" lon="4.96706">
        <ele>378</ele>
        <time>2012-10-13T06:13:05Z</time>
      </trkpt>
      <trkpt lat="47.28309" lon="4.96703">
        <ele>378</ele>
        <time>2012-10-13T06:13:08Z</time>
      </trkpt>
      <trkpt lat="47.28314" lon="4.967">
        <ele>379</ele>
        <time>2012-10-13T06:13:11Z</time>
      </trkpt>
      <trkpt lat="47.28318" lon="4.96695">
        <ele>380</ele>
        <time>2012-10-13T06:13:14Z</time>
      </trkpt>
      <trkpt lat="47.28323" lon="4.96693">
        <ele>381</ele>
        <time>2012-10-13T06:13:16Z</time>
      </trkpt>
      <trkpt lat="47.28328" lon="4.9669">
        <ele>382</ele>
        <time>2012-10-13T06:13:19Z</time>
      </trkpt>
      <trkpt lat="47.28333" lon="4.96685">
        <ele>382</ele>
        <time>2012-10-13T06:13:22Z</time>
      </trkpt>
      <trkpt lat="47.28338" lon="4.96682">
        <ele>381</ele>
        <time>2012-10-13T06:13:25Z</time>
      </trkpt>
      <trkpt lat="47.28343" lon="4.96678">
        <ele>382</ele>
        <time>2012-10-13T06:13:28Z</time>
      </trkpt>
      <trkpt lat="47.28351" lon="4.96675">
        <ele>384</ele>
        <time>2012-10-13T06:13:31Z</time>
      </trkpt>
      <trkpt lat="47.28355" lon="4.96669">
        <ele>385</ele>
        <time>2012-10-13T06:13:35Z</time>
      </trkpt>
      <trkpt lat="47.28359" lon="4.96667">
        <ele>386</ele>
        <time>2012-10-13T06:13:37Z</time>
      </trkpt>
      <trkpt lat="47.28364" lon="4.96666">
        <ele>386</ele>
        <time>2012-10-13T06:13:39Z</time>
      </trkpt>
      <trkpt lat="47.28371" lon="4.96664">
        <ele>387</ele>
        <time>2012-10-13T06:13:43Z</time>
      </trkpt>
      <trkpt lat="47.28374" lon="4.96657">
        <ele>388</ele>
        <time>2012-10-13T06:13:47Z</time>
      </trkpt>
      <trkpt lat="47.28377" lon="4.96649">
        <ele>389</ele>
        <time>2012-10-13T06:13:50Z</time>
      </trkpt>
      <trkpt lat="47.28382" lon="4.96644">
        <ele>390</ele>
        <time>2012-10-13T06:13:54Z</time>
      </trkpt>
      <trkpt lat="47.28388" lon="4.96643">
        <ele>390</ele>
        <time>2012-10-13T06:13:56Z</time>
      </trkpt>
      <trkpt lat="47.28394" lon="4.96643">
        <ele>390</ele>
        <time>2012-10-13T06:13:57Z</time>
      </trkpt>
      <trkpt lat="47.28396" lon="4.96636">
        <ele>391</ele>
        <time>2012-10-13T06:14:01Z</time>
      </trkpt>
      <trkpt lat="47.28399" lon="4.96628">
        <ele>391</ele>
        <time>2012-10-13T06:14:04Z</time>
      </trkpt>
      <trkpt lat="47.28402" lon="4.96622">
        <ele>391</ele>
        <time>2012-10-13T06:14:06Z</time>
      </trkpt>
      <trkpt lat="47.284" lon="4.96616">
        <ele>392</ele>
        <time>2012-10-13T06:14:08Z</time>
      </trkpt>
      <trkpt lat="47.28404" lon="4.96609">
        <ele>393</ele>
        <time>2012-10-13T06:14:11Z</time>
      </trkpt>
      <trkpt lat="47.28406" lon="4.96601">
        <ele>394</ele>
        <time>2012-10-13T06:14:15Z</time>
      </trkpt>
      <trkpt lat="47.28404" lon="4.96595">
        <ele>393</ele>
        <time>2012-10-13T06:14:17Z</time>
      </trkpt>
      <trkpt lat="47.28409" lon="4.96594">
        <ele>393</ele>
        <time>2012-10-13T06:14:19Z</time>
      </trkpt>
      <trkpt lat="47.28412" lon="4.96588">
        <ele>394</ele>
        <time>2012-10-13T06:14:22Z</time>
      </trkpt>
      <trkpt lat="47.28411" lon="4.96581">
        <ele>394</ele>
        <time>2012-10-13T06:14:24Z</time>
      </trkpt>
      <trkpt lat="47.28408" lon="4.96573">
        <ele>398</ele>
        <time>2012-10-13T06:14:26Z</time>
      </trkpt>
      <trkpt lat="47.28406" lon="4.96568">
        <ele>396</ele>
        <time>2012-10-13T06:14:29Z</time>
      </trkpt>
      <trkpt lat="47.28407" lon="4.96559">
        <ele>397</ele>
        <time>2012-10-13T06:14:33Z</time>
      </trkpt>
      <trkpt lat="47.28412" lon="4.96555">
        <ele>397</ele>
        <time>2012-10-13T06:14:36Z</time>
      </trkpt>
      <trkpt lat="47.28411" lon="4.96547">
        <ele>397</ele>
        <time>2012-10-13T06:14:39Z</time>
      </trkpt>
      <trkpt lat="47.28414" lon="4.9654">
        <ele>397</ele>
        <time>2012-10-13T06:14:42Z</time>
      </trkpt>
      <trkpt lat="47.28412" lon="4.96533">
        <ele>398</ele>
        <time>2012-10-13T06:14:44Z</time>
      </trkpt>
      <trkpt lat="47.28409" lon="4.96527">
        <ele>398</ele>
        <time>2012-10-13T06:14:46Z</time>
      </trkpt>
      <trkpt lat="47.28412" lon="4.9652">
        <ele>399</ele>
        <time>2012-10-13T06:14:49Z</time>
      </trkpt>
      <trkpt lat="47.28413" lon="4.96514">
        <ele>399</ele>
        <time>2012-10-13T06:14:53Z</time>
      </trkpt>
      <trkpt lat="47.28418" lon="4.96512">
        <ele>399</ele>
        <time>2012-10-13T06:14:56Z</time>
      </trkpt>
      <trkpt lat="47.28422" lon="4.96508">
        <ele>400</ele>
        <time>2012-10-13T06:15:00Z</time>
      </trkpt>
      <trkpt lat="47.2842" lon="4.96502">
        <ele>399</ele>
        <time>2012-10-13T06:15:02Z</time>
      </trkpt>
      <trkpt lat="47.28424" lon="4.96497">
        <ele>399</ele>
        <time>2012-10-13T06:15:06Z</time>
      </trkpt>
      <trkpt lat="47.28426" lon="4.9649">
        <ele>400</ele>
        <time>2012-10-13T06:15:10Z</time>
      </trkpt>
      <trkpt lat="47.2843" lon="4.9649">
        <ele>401</ele>
        <time>2012-10-13T06:15:12Z</time>
      </trkpt>
      <trkpt lat="47.28465" lon="4.96496">
        <ele>399</ele>
        <time>2012-10-13T06:15:31Z</time>
      </trkpt>
      <trkpt lat="47.2847" lon="4.96482">
        <ele>399</ele>
        <time>2012-10-13T06:15:37Z</time>
      </trkpt>
      <trkpt lat="47.28473" lon="4.96492">
        <ele>399</ele>
        <time>2012-10-13T06:15:38Z</time>
      </trkpt>
      <trkpt lat="47.28462" lon="4.96483">
        <ele>399</ele>
        <time>2012-10-13T06:15:44Z</time>
      </trkpt>
      <trkpt lat="47.28475" lon="4.96497">
        <ele>399</ele>
        <time>2012-10-13T06:15:45Z</time>
      </trkpt>
      <trkpt lat="47.28478" lon="4.96486">
        <ele>399</ele>
        <time>2012-10-13T06:15:53Z</time>
      </trkpt>
      <trkpt lat="47.28481" lon="4.96479">
        <ele>399</ele>
        <time>2012-10-13T06:15:54Z</time>
      </trkpt>
      <trkpt lat="47.28469" lon="4.96466">
        <ele>399</ele>
        <time>2012-10-13T06:15:55Z</time>
      </trkpt>
      <trkpt lat="47.28485" lon="4.96487">
        <ele>399</ele>
        <time>2012-10-13T06:16:01Z</time>
      </trkpt>
      <trkpt lat="47.2849" lon="4.9649">
        <ele>399</ele>
        <time>2012-10-13T06:16:04Z</time>
      </trkpt>
      <trkpt lat="47.28525" lon="4.96468">
        <ele>399</ele>
        <time>2012-10-13T06:16:30Z</time>
      </trkpt>
      <trkpt lat="47.28538" lon="4.96473">
        <ele>399</ele>
        <time>2012-10-13T06:16:31Z</time>
      </trkpt>
      <trkpt lat="47.28522" lon="4.96462">
        <ele>419</ele>
        <time>2012-10-13T06:16:35Z</time>
      </trkpt>
      <trkpt lat="47.28522" lon="4.96455">
        <ele>412</ele>
        <time>2012-10-13T06:16:36Z</time>
      </trkpt>
      <trkpt lat="47.28535" lon="4.96461">
        <ele>412</ele>
        <time>2012-10-13T06:16:40Z</time>
      </trkpt>
      <trkpt lat="47.28543" lon="4.96467">
        <ele>412</ele>
        <time>2012-10-13T06:16:41Z</time>
      </trkpt>
      <trkpt lat="47.28536" lon="4.96468">
        <ele>426</ele>
        <time>2012-10-13T06:16:42Z</time>
      </trkpt>
      <trkpt lat="47.28531" lon="4.96455">
        <ele>401</ele>
        <time>2012-10-13T06:16:43Z</time>
      </trkpt>
      <trkpt lat="47.28542" lon="4.96454">
        <ele>422</ele>
        <time>2012-10-13T06:16:45Z</time>
      </trkpt>
      <trkpt lat="47.28531" lon="4.96453">
        <ele>424</ele>
        <time>2012-10-13T06:16:46Z</time>
      </trkpt>
      <trkpt lat="47.28541" lon="4.96461">
        <ele>441</ele>
        <time>2012-10-13T06:16:47Z</time>
      </trkpt>
      <trkpt lat="47.28535" lon="4.9646">
        <ele>443</ele>
        <time>2012-10-13T06:16:48Z</time>
      </trkpt>
      <trkpt lat="47.2853" lon="4.96458">
        <ele>445</ele>
        <time>2012-10-13T06:16:49Z</time>
      </trkpt>
      <trkpt lat="47.28535" lon="4.96455">
        <ele>435</ele>
        <time>2012-10-13T06:16:55Z</time>
      </trkpt>
      <trkpt lat="47.28543" lon="4.96454">
        <ele>432</ele>
        <time>2012-10-13T06:16:58Z</time>
      </trkpt>
      <trkpt lat="47.28549" lon="4.96453">
        <ele>429</ele>
        <time>2012-10-13T06:17:03Z</time>
      </trkpt>
      <trkpt lat="47.28549" lon="4.96453">
        <ele>429</ele>
        <time>2012-10-13T06:17:03Z</time>
      </trkpt>
      <trkpt lat="47.28549" lon="4.96453">
        <ele>429</ele>
        <time>2012-10-13T06:17:04Z</time>
      </trkpt>
      <trkpt lat="47.28556" lon="4.96452">
        <ele>428</ele>
        <time>2012-10-13T06:17:12Z</time>
      </trkpt>
      <trkpt lat="47.28561" lon="4.9645">
        <ele>429</ele>
        <time>2012-10-13T06:17:17Z</time>
      </trkpt>
      <trkpt lat="47.28565" lon="4.96452">
        <ele>434</ele>
        <time>2012-10-13T06:17:20Z</time>
      </trkpt>
      <trkpt lat="47.2857" lon="4.96452">
        <ele>434</ele>
        <time>2012-10-13T06:17:23Z</time>
      </trkpt>
      <trkpt lat="47.2857" lon="4.96452">
        <ele>434</ele>
        <time>2012-10-13T06:17:23Z</time>
      </trkpt>
      <trkpt lat="47.2857" lon="4.96452">
        <ele>434</ele>
        <time>2012-10-13T06:17:24Z</time>
      </trkpt>
      <trkpt lat="47.28577" lon="4.96449">
        <ele>434</ele>
        <time>2012-10-13T06:17:53Z</time>
      </trkpt>
      <trkpt lat="47.28587" lon="4.96452">
        <ele>434</ele>
        <time>2012-10-13T06:17:56Z</time>
      </trkpt>
      <trkpt lat="47.28592" lon="4.96451">
        <ele>433</ele>
        <time>2012-10-13T06:17:59Z</time>
      </trkpt>
      <trkpt lat="47.28598" lon="4.96452">
        <ele>433</ele>
        <time>2012-10-13T06:18:05Z</time>
      </trkpt>
      <trkpt lat="47.28605" lon="4.96453">
        <ele>435</ele>
        <time>2012-10-13T06:18:12Z</time>
      </trkpt>
      <trkpt lat="47.2861" lon="4.96456">
        <ele>437</ele>
        <time>2012-10-13T06:18:13Z</time>
      </trkpt>
      <trkpt lat="47.28615" lon="4.96459">
        <ele>438</ele>
        <time>2012-10-13T06:18:17Z</time>
      </trkpt>
      <trkpt lat="47.28621" lon="4.9646">
        <ele>439</ele>
        <time>2012-10-13T06:18:22Z</time>
      </trkpt>
      <trkpt lat="47.28625" lon="4.96463">
        <ele>440</ele>
        <time>2012-10-13T06:18:24Z</time>
      </trkpt>
      <trkpt lat="47.28625" lon="4.96463">
        <ele>440</ele>
        <time>2012-10-13T06:18:24Z</time>
      </trkpt>
      <trkpt lat="47.28625" lon="4.96463">
        <ele>441</ele>
        <time>2012-10-13T06:18:26Z</time>
      </trkpt>
      <trkpt lat="47.2863" lon="4.96464">
        <ele>442</ele>
        <time>2012-10-13T06:18:33Z</time>
      </trkpt>
      <trkpt lat="47.2863" lon="4.96464">
        <ele>442</ele>
        <time>2012-10-13T06:18:33Z</time>
      </trkpt>
      <trkpt lat="47.2863" lon="4.96464">
        <ele>442</ele>
        <time>2012-10-13T06:18:35Z</time>
      </trkpt>
      <trkpt lat="47.28635" lon="4.96465">
        <ele>444</ele>
        <time>2012-10-13T06:18:36Z</time>
      </trkpt>
      <trkpt lat="47.2864" lon="4.96466">
        <ele>444</ele>
        <time>2012-10-13T06:18:37Z</time>
      </trkpt>
      <trkpt lat="47.28644" lon="4.96468">
        <ele>446</ele>
        <time>2012-10-13T06:18:44Z</time>
      </trkpt>
      <trkpt lat="47.28649" lon="4.96473">
        <ele>449</ele>
        <time>2012-10-13T06:18:53Z</time>
      </trkpt>
      <trkpt lat="47.28653" lon="4.96475">
        <ele>449</ele>
        <time>2012-10-13T06:18:56Z</time>
      </trkpt>
      <trkpt lat="47.28662" lon="4.96479">
        <ele>452</ele>
        <time>2012-10-13T06:19:00Z</time>
      </trkpt>
      <trkpt lat="47.28669" lon="4.96485">
        <ele>454</ele>
        <time>2012-10-13T06:19:06Z</time>
      </trkpt>
      <trkpt lat="47.28676" lon="4.96493">
        <ele>458</ele>
        <time>2012-10-13T06:19:08Z</time>
      </trkpt>
      <trkpt lat="47.28677" lon="4.965">
        <ele>462</ele>
        <time>2012-10-13T06:19:13Z</time>
      </trkpt>
      <trkpt lat="47.28673" lon="4.96506">
        <ele>466</ele>
        <time>2012-10-13T06:19:18Z</time>
      </trkpt>
      <trkpt lat="47.28668" lon="4.96511">
        <ele>466</ele>
        <time>2012-10-13T06:19:22Z</time>
      </trkpt>
      <trkpt lat="47.28671" lon="4.96504">
        <ele>465</ele>
        <time>2012-10-13T06:19:38Z</time>
      </trkpt>
      <trkpt lat="47.28677" lon="4.96498">
        <ele>466</ele>
        <time>2012-10-13T06:20:36Z</time>
      </trkpt>
      <trkpt lat="47.28682" lon="4.96496">
        <ele>466</ele>
        <time>2012-10-13T06:20:37Z</time>
      </trkpt>
      <trkpt lat="47.28685" lon="4.9649">
        <ele>464</ele>
        <time>2012-10-13T06:20:38Z</time>
      </trkpt>
      <trkpt lat="47.28687" lon="4.96481">
        <ele>464</ele>
        <time>2012-10-13T06:20:39Z</time>
      </trkpt>
      <trkpt lat="47.28691" lon="4.96478">
        <ele>465</ele>
        <time>2012-10-13T06:20:48Z</time>
      </trkpt>
      <trkpt lat="47.28695" lon="4.96471">
        <ele>467</ele>
        <time>2012-10-13T06:20:56Z</time>
      </trkpt>
      <trkpt lat="47.28697" lon="4.96463">
        <ele>467</ele>
        <time>2012-10-13T06:21:00Z</time>
      </trkpt>
      <trkpt lat="47.28697" lon="4.96456">
        <ele>465</ele>
        <time>2012-10-13T06:21:03Z</time>
      </trkpt>
      <trkpt lat="47.28701" lon="4.96452">
        <ele>465</ele>
        <time>2012-10-13T06:21:08Z</time>
      </trkpt>
      <trkpt lat="47.28704" lon="4.96447">
        <ele>465</ele>
        <time>2012-10-13T06:21:19Z</time>
      </trkpt>
      <trkpt lat="47.28704" lon="4.96447">
        <ele>465</ele>
        <time>2012-10-13T06:21:19Z</time>
      </trkpt>
      <trkpt lat="47.28704" lon="4.96447">
        <ele>465</ele>
        <time>2012-10-13T06:21:27Z</time>
      </trkpt>
      <trkpt lat="47.28704" lon="4.96436">
        <ele>463</ele>
        <time>2012-10-13T06:21:36Z</time>
      </trkpt>
      <trkpt lat="47.28706" lon="4.96431">
        <ele>461</ele>
        <time>2012-10-13T06:21:41Z</time>
      </trkpt>
      <trkpt lat="47.28709" lon="4.96425">
        <ele>463</ele>
        <time>2012-10-13T06:21:49Z</time>
      </trkpt>
      <trkpt lat="47.28714" lon="4.96418">
        <ele>464</ele>
        <time>2012-10-13T06:21:53Z</time>
      </trkpt>
      <trkpt lat="47.28717" lon="4.96412">
        <ele>470</ele>
        <time>2012-10-13T06:22:00Z</time>
      </trkpt>
      <trkpt lat="47.28722" lon="4.9641">
        <ele>472</ele>
        <time>2012-10-13T06:22:29Z</time>
      </trkpt>
      <trkpt lat="47.28722" lon="4.9641">
        <ele>472</ele>
        <time>2012-10-13T06:22:29Z</time>
      </trkpt>
      <trkpt lat="47.28722" lon="4.9641">
        <ele>473</ele>
        <time>2012-10-13T06:22:32Z</time>
      </trkpt>
      <trkpt lat="47.28726" lon="4.96412">
        <ele>466</ele>
        <time>2012-10-13T06:25:23Z</time>
      </trkpt>
      <trkpt lat="47.28728" lon="4.96419">
        <ele>472</ele>
        <time>2012-10-13T06:26:45Z</time>
      </trkpt>
      <trkpt lat="47.28732" lon="4.96417">
        <ele>471</ele>
        <time>2012-10-13T06:26:51Z</time>
      </trkpt>
      <trkpt lat="47.28738" lon="4.96419">
        <ele>473</ele>
        <time>2012-10-13T06:26:59Z</time>
      </trkpt>
      <trkpt lat="47.28742" lon="4.96423">
        <ele>479</ele>
        <time>2012-10-13T06:27:04Z</time>
      </trkpt>
      <trkpt lat="47.28746" lon="4.96428">
        <ele>480</ele>
        <time>2012-10-13T06:27:07Z</time>
      </trkpt>
      <trkpt lat="47.28748" lon="4.96436">
        <ele>479</ele>
        <time>2012-10-13T06:27:10Z</time>
      </trkpt>
      <trkpt lat="47.28746" lon="4.96442">
        <ele>476</ele>
        <time>2012-10-13T06:27:16Z</time>
      </trkpt>
      <trkpt lat="47.28748" lon="4.9645">
        <ele>476</ele>
        <time>2012-10-13T06:27:21Z</time>
      </trkpt>
      <trkpt lat="47.28747" lon="4.96458">
        <ele>475</ele>
        <time>2012-10-13T06:27:26Z</time>
      </trkpt>
      <trkpt lat="47.28746" lon="4.96464">
        <ele>475</ele>
        <time>2012-10-13T06:27:30Z</time>
      </trkpt>
      <trkpt lat="47.28745" lon="4.96472">
        <ele>475</ele>
        <time>2012-10-13T06:27:34Z</time>
      </trkpt>
      <trkpt lat="47.28744" lon="4.96479">
        <ele>475</ele>
        <time>2012-10-13T06:27:39Z</time>
      </trkpt>
      <trkpt lat="47.28745" lon="4.96487">
        <ele>476</ele>
        <time>2012-10-13T06:27:45Z</time>
      </trkpt>
      <trkpt lat="47.28744" lon="4.96494">
        <ele>475</ele>
        <time>2012-10-13T06:27:50Z</time>
      </trkpt>
      <trkpt lat="47.28744" lon="4.96503">
        <ele>475</ele>
        <time>2012-10-13T06:27:54Z</time>
      </trkpt>
      <trkpt lat="47.28742" lon="4.9651">
        <ele>475</ele>
        <time>2012-10-13T06:27:58Z</time>
      </trkpt>
      <trkpt lat="47.28741" lon="4.96517">
        <ele>474</ele>
        <time>2012-10-13T06:28:02Z</time>
      </trkpt>
      <trkpt lat="47.2874" lon="4.96526">
        <ele>474</ele>
        <time>2012-10-13T06:28:05Z</time>
      </trkpt>
      <trkpt lat="47.28739" lon="4.96533">
        <ele>473</ele>
        <time>2012-10-13T06:28:09Z</time>
      </trkpt>
      <trkpt lat="47.28737" lon="4.9654">
        <ele>473</ele>
        <time>2012-10-13T06:28:12Z</time>
      </trkpt>
      <trkpt lat="47.28736" lon="4.96547">
        <ele>471</ele>
        <time>2012-10-13T06:28:16Z</time>
      </trkpt>
      <trkpt lat="47.28736" lon="4.96554">
        <ele>470</ele>
        <time>2012-10-13T06:28:20Z</time>
      </trkpt>
      <trkpt lat="47.28737" lon="4.96562">
        <ele>468</ele>
        <time>2012-10-13T06:28:25Z</time>
      </trkpt>
      <trkpt lat="47.28739" lon="4.96568">
        <ele>468</ele>
        <time>2012-10-13T06:28:31Z</time>
      </trkpt>
      <trkpt lat="47.28742" lon="4.96573">
        <ele>469</ele>
        <time>2012-10-13T06:28:37Z</time>
      </trkpt>
      <trkpt lat="47.28747" lon="4.96572">
        <ele>466</ele>
        <time>2012-10-13T06:28:42Z</time>
      </trkpt>
      <trkpt lat="47.28751" lon="4.96574">
        <ele>468</ele>
        <time>2012-10-13T06:28:47Z</time>
      </trkpt>
      <trkpt lat="47.28756" lon="4.96578">
        <ele>471</ele>
        <time>2012-10-13T06:28:51Z</time>
      </trkpt>
      <trkpt lat="47.28761" lon="4.96579">
        <ele>474</ele>
        <time>2012-10-13T06:28:56Z</time>
      </trkpt>
      <trkpt lat="47.28766" lon="4.96579">
        <ele>473</ele>
        <time>2012-10-13T06:29:00Z</time>
      </trkpt>
      <trkpt lat="47.2877" lon="4.96581">
        <ele>475</ele>
        <time>2012-10-13T06:29:04Z</time>
      </trkpt>
      <trkpt lat="47.2877" lon="4.96581">
        <ele>475</ele>
        <time>2012-10-13T06:29:04Z</time>
      </trkpt>
      <trkpt lat="47.2877" lon="4.96581">
        <ele>475</ele>
        <time>2012-10-13T06:29:05Z</time>
      </trkpt>
      <trkpt lat="47.28776" lon="4.96583">
        <ele>475</ele>
        <time>2012-10-13T06:29:11Z</time>
      </trkpt>
      <trkpt lat="47.28782" lon="4.96585">
        <ele>478</ele>
        <time>2012-10-13T06:29:17Z</time>
      </trkpt>
      <trkpt lat="47.28787" lon="4.96588">
        <ele>478</ele>
        <time>2012-10-13T06:29:20Z</time>
      </trkpt>
      <trkpt lat="47.28792" lon="4.96591">
        <ele>480</ele>
        <time>2012-10-13T06:29:25Z</time>
      </trkpt>
      <trkpt lat="47.28796" lon="4.96593">
        <ele>481</ele>
        <time>2012-10-13T06:29:28Z</time>
      </trkpt>
      <trkpt lat="47.28802" lon="4.96594">
        <ele>482</ele>
        <time>2012-10-13T06:29:32Z</time>
      </trkpt>
      <trkpt lat="47.28807" lon="4.96596">
        <ele>483</ele>
        <time>2012-10-13T06:29:36Z</time>
      </trkpt>
      <trkpt lat="47.28812" lon="4.96598">
        <ele>482</ele>
        <time>2012-10-13T06:29:39Z</time>
      </trkpt>
      <trkpt lat="47.28816" lon="4.966">
        <ele>482</ele>
        <time>2012-10-13T06:29:41Z</time>
      </trkpt>
      <trkpt lat="47.28821" lon="4.96601">
        <ele>482</ele>
        <time>2012-10-13T06:29:46Z</time>
      </trkpt>
      <trkpt lat="47.28826" lon="4.96603">
        <ele>482</ele>
        <time>2012-10-13T06:29:49Z</time>
      </trkpt>
      <trkpt lat="47.2883" lon="4.96605">
        <ele>480</ele>
        <time>2012-10-13T06:29:53Z</time>
      </trkpt>
      <trkpt lat="47.28835" lon="4.96607">
        <ele>481</ele>
        <time>2012-10-13T06:29:56Z</time>
      </trkpt>
      <trkpt lat="47.2884" lon="4.96609">
        <ele>480</ele>
        <time>2012-10-13T06:29:59Z</time>
      </trkpt>
      <trkpt lat="47.28845" lon="4.96611">
        <ele>477</ele>
        <time>2012-10-13T06:30:04Z</time>
      </trkpt>
      <trkpt lat="47.28851" lon="4.96612">
        <ele>477</ele>
        <time>2012-10-13T06:30:10Z</time>
      </trkpt>
      <trkpt lat="47.28856" lon="4.96614">
        <ele>479</ele>
        <time>2012-10-13T06:30:13Z</time>
      </trkpt>
      <trkpt lat="47.28861" lon="4.96615">
        <ele>478</ele>
        <time>2012-10-13T06:30:19Z</time>
      </trkpt>
      <trkpt lat="47.28866" lon="4.96616">
        <ele>477</ele>
        <time>2012-10-13T06:30:26Z</time>
      </trkpt>
      <trkpt lat="47.28871" lon="4.96616">
        <ele>476</ele>
        <time>2012-10-13T06:30:31Z</time>
      </trkpt>
      <trkpt lat="47.28876" lon="4.96618">
        <ele>478</ele>
        <time>2012-10-13T06:30:33Z</time>
      </trkpt>
      <trkpt lat="47.2888" lon="4.9662">
        <ele>479</ele>
        <time>2012-10-13T06:30:36Z</time>
      </trkpt>
      <trkpt lat="47.28886" lon="4.96622">
        <ele>482</ele>
        <time>2012-10-13T06:30:40Z</time>
      </trkpt>
      <trkpt lat="47.28891" lon="4.96626">
        <ele>484</ele>
        <time>2012-10-13T06:30:43Z</time>
      </trkpt>
      <trkpt lat="47.28896" lon="4.96629">
        <ele>487</ele>
        <time>2012-10-13T06:30:47Z</time>
      </trkpt>
      <trkpt lat="47.28901" lon="4.96632">
        <ele>488</ele>
        <time>2012-10-13T06:30:50Z</time>
      </trkpt>
      <trkpt lat="47.28906" lon="4.96634">
        <ele>488</ele>
        <time>2012-10-13T06:30:53Z</time>
      </trkpt>
      <trkpt lat="47.28912" lon="4.96637">
        <ele>488</ele>
        <time>2012-10-13T06:30:56Z</time>
      </trkpt>
      <trkpt lat="47.28917" lon="4.96638">
        <ele>490</ele>
        <time>2012-10-13T06:30:59Z</time>
      </trkpt>
      <trkpt lat="47.28921" lon="4.96639">
        <ele>491</ele>
        <time>2012-10-13T06:31:01Z</time>
      </trkpt>
      <trkpt lat="47.28926" lon="4.96641">
        <ele>490</ele>
        <time>2012-10-13T06:31:04Z</time>
      </trkpt>
      <trkpt lat="47.28931" lon="4.96643">
        <ele>488</ele>
        <time>2012-10-13T06:31:08Z</time>
      </trkpt>
      <trkpt lat="47.28936" lon="4.96646">
        <ele>489</ele>
        <time>2012-10-13T06:31:11Z</time>
      </trkpt>
      <trkpt lat="47.28941" lon="4.96648">
        <ele>491</ele>
        <time>2012-10-13T06:31:15Z</time>
      </trkpt>
      <trkpt lat="47.28946" lon="4.96649">
        <ele>489</ele>
        <time>2012-10-13T06:31:18Z</time>
      </trkpt>
      <trkpt lat="47.28951" lon="4.96651">
        <ele>488</ele>
        <time>2012-10-13T06:31:21Z</time>
      </trkpt>
      <trkpt lat="47.28958" lon="4.96652">
        <ele>485</ele>
        <time>2012-10-13T06:31:24Z</time>
      </trkpt>
      <trkpt lat="47.28962" lon="4.96653">
        <ele>483</ele>
        <time>2012-10-13T06:31:27Z</time>
      </trkpt>
      <trkpt lat="47.28967" lon="4.96656">
        <ele>483</ele>
        <time>2012-10-13T06:31:30Z</time>
      </trkpt>
      <trkpt lat="47.28972" lon="4.96658">
        <ele>483</ele>
        <time>2012-10-13T06:31:33Z</time>
      </trkpt>
      <trkpt lat="47.28978" lon="4.96659">
        <ele>482</ele>
        <time>2012-10-13T06:31:37Z</time>
      </trkpt>
      <trkpt lat="47.28983" lon="4.9666">
        <ele>482</ele>
        <time>2012-10-13T06:31:41Z</time>
      </trkpt>
      <trkpt lat="47.28988" lon="4.96662">
        <ele>483</ele>
        <time>2012-10-13T06:31:44Z</time>
      </trkpt>
      <trkpt lat="47.28993" lon="4.96664">
        <ele>483</ele>
        <time>2012-10-13T06:31:47Z</time>
      </trkpt>
      <trkpt lat="47.28999" lon="4.96666">
        <ele>482</ele>
        <time>2012-10-13T06:31:50Z</time>
      </trkpt>
      <trkpt lat="47.29005" lon="4.96669">
        <ele>481</ele>
        <time>2012-10-13T06:31:53Z</time>
      </trkpt>
      <trkpt lat="47.2901" lon="4.96671">
        <ele>481</ele>
        <time>2012-10-13T06:31:57Z</time>
      </trkpt>
      <trkpt lat="47.29014" lon="4.96674">
        <ele>481</ele>
        <time>2012-10-13T06:32:02Z</time>
      </trkpt>
      <trkpt lat="47.29019" lon="4.96676">
        <ele>480</ele>
        <time>2012-10-13T06:32:05Z</time>
      </trkpt>
      <trkpt lat="47.29024" lon="4.96678">
        <ele>481</ele>
        <time>2012-10-13T06:32:08Z</time>
      </trkpt>
      <trkpt lat="47.29028" lon="4.9668">
        <ele>482</ele>
        <time>2012-10-13T06:32:11Z</time>
      </trkpt>
      <trkpt lat="47.29033" lon="4.96682">
        <ele>481</ele>
        <time>2012-10-13T06:32:13Z</time>
      </trkpt>
      <trkpt lat="47.29038" lon="4.96683">
        <ele>481</ele>
        <time>2012-10-13T06:32:16Z</time>
      </trkpt>
      <trkpt lat="47.29043" lon="4.96684">
        <ele>481</ele>
        <time>2012-10-13T06:32:18Z</time>
      </trkpt>
      <trkpt lat="47.29049" lon="4.96687">
        <ele>481</ele>
        <time>2012-10-13T06:32:21Z</time>
      </trkpt>
      <trkpt lat="47.29055" lon="4.9669">
        <ele>481</ele>
        <time>2012-10-13T06:32:23Z</time>
      </trkpt>
      <trkpt lat="47.2906" lon="4.9669">
        <ele>479</ele>
        <time>2012-10-13T06:32:27Z</time>
      </trkpt>
      <trkpt lat="47.29064" lon="4.96692">
        <ele>478</ele>
        <time>2012-10-13T06:32:34Z</time>
      </trkpt>
      <trkpt lat="47.29064" lon="4.96692">
        <ele>478</ele>
        <time>2012-10-13T06:32:34Z</time>
      </trkpt>
      <trkpt lat="47.29064" lon="4.96692">
        <ele>478</ele>
        <time>2012-10-13T06:32:35Z</time>
      </trkpt>
      <trkpt lat="47.2907" lon="4.96695">
        <ele>478</ele>
        <time>2012-10-13T06:32:37Z</time>
      </trkpt>
      <trkpt lat="47.29076" lon="4.96699">
        <ele>477</ele>
        <time>2012-10-13T06:32:40Z</time>
      </trkpt>
      <trkpt lat="47.29081" lon="4.96702">
        <ele>476</ele>
        <time>2012-10-13T06:32:42Z</time>
      </trkpt>
      <trkpt lat="47.29085" lon="4.96704">
        <ele>477</ele>
        <time>2012-10-13T06:32:46Z</time>
      </trkpt>
      <trkpt lat="47.29091" lon="4.96704">
        <ele>477</ele>
        <time>2012-10-13T06:32:51Z</time>
      </trkpt>
      <trkpt lat="47.29096" lon="4.96708">
        <ele>477</ele>
        <time>2012-10-13T06:32:53Z</time>
      </trkpt>
      <trkpt lat="47.29102" lon="4.9671">
        <ele>475</ele>
        <time>2012-10-13T06:32:56Z</time>
      </trkpt>
      <trkpt lat="47.29108" lon="4.96711">
        <ele>474</ele>
        <time>2012-10-13T06:32:59Z</time>
      </trkpt>
      <trkpt lat="47.29114" lon="4.96714">
        <ele>475</ele>
        <time>2012-10-13T06:33:02Z</time>
      </trkpt>
      <trkpt lat="47.29118" lon="4.96715">
        <ele>475</ele>
        <time>2012-10-13T06:33:05Z</time>
      </trkpt>
      <trkpt lat="47.29123" lon="4.96717">
        <ele>474</ele>
        <time>2012-10-13T06:33:08Z</time>
      </trkpt>
      <trkpt lat="47.29129" lon="4.96718">
        <ele>472</ele>
        <time>2012-10-13T06:33:13Z</time>
      </trkpt>
      <trkpt lat="47.29134" lon="4.9672">
        <ele>470</ele>
        <time>2012-10-13T06:33:15Z</time>
      </trkpt>
      <trkpt lat="47.2914" lon="4.96722">
        <ele>469</ele>
        <time>2012-10-13T06:33:18Z</time>
      </trkpt>
      <trkpt lat="47.29145" lon="4.96725">
        <ele>468</ele>
        <time>2012-10-13T06:33:22Z</time>
      </trkpt>
      <trkpt lat="47.29152" lon="4.96729">
        <ele>467</ele>
        <time>2012-10-13T06:33:34Z</time>
      </trkpt>
      <trkpt lat="47.29158" lon="4.96729">
        <ele>465</ele>
        <time>2012-10-13T06:33:38Z</time>
      </trkpt>
      <trkpt lat="47.29163" lon="4.96731">
        <ele>464</ele>
        <time>2012-10-13T06:33:40Z</time>
      </trkpt>
      <trkpt lat="47.29169" lon="4.96729">
        <ele>463</ele>
        <time>2012-10-13T06:33:43Z</time>
      </trkpt>
      <trkpt lat="47.29174" lon="4.96726">
        <ele>461</ele>
        <time>2012-10-13T06:33:46Z</time>
      </trkpt>
      <trkpt lat="47.29179" lon="4.96721">
        <ele>459</ele>
        <time>2012-10-13T06:33:50Z</time>
      </trkpt>
      <trkpt lat="47.29183" lon="4.96717">
        <ele>458</ele>
        <time>2012-10-13T06:33:53Z</time>
      </trkpt>
      <trkpt lat="47.29188" lon="4.96714">
        <ele>457</ele>
        <time>2012-10-13T06:33:56Z</time>
      </trkpt>
      <trkpt lat="47.29192" lon="4.96713">
        <ele>457</ele>
        <time>2012-10-13T06:33:59Z</time>
      </trkpt>
      <trkpt lat="47.29197" lon="4.96713">
        <ele>456</ele>
        <time>2012-10-13T06:34:03Z</time>
      </trkpt>
      <trkpt lat="47.29202" lon="4.96713">
        <ele>454</ele>
        <time>2012-10-13T06:34:06Z</time>
      </trkpt>
      <trkpt lat="47.29207" lon="4.96714">
        <ele>452</ele>
        <time>2012-10-13T06:34:10Z</time>
      </trkpt>
      <trkpt lat="47.29212" lon="4.96714">
        <ele>453</ele>
        <time>2012-10-13T06:34:15Z</time>
      </trkpt>
      <trkpt lat="47.29218" lon="4.96717">
        <ele>455</ele>
        <time>2012-10-13T06:34:19Z</time>
      </trkpt>
      <trkpt lat="47.29222" lon="4.96721">
        <ele>457</ele>
        <time>2012-10-13T06:34:23Z</time>
      </trkpt>
      <trkpt lat="47.29226" lon="4.96725">
        <ele>457</ele>
        <time>2012-10-13T06:34:27Z</time>
      </trkpt>
      <trkpt lat="47.2923" lon="4.96732">
        <ele>458</ele>
        <time>2012-10-13T06:34:31Z</time>
      </trkpt>
      <trkpt lat="47.29233" lon="4.96737">
        <ele>458</ele>
        <time>2012-10-13T06:34:34Z</time>
      </trkpt>
      <trkpt lat="47.29234" lon="4.96744">
        <ele>460</ele>
        <time>2012-10-13T06:34:37Z</time>
      </trkpt>
      <trkpt lat="47.29238" lon="4.96749">
        <ele>462</ele>
        <time>2012-10-13T06:34:41Z</time>
      </trkpt>
      <trkpt lat="47.2924" lon="4.96756">
        <ele>461</ele>
        <time>2012-10-13T06:34:44Z</time>
      </trkpt>
      <trkpt lat="47.29242" lon="4.96762">
        <ele>460</ele>
        <time>2012-10-13T06:34:47Z</time>
      </trkpt>
      <trkpt lat="47.29244" lon="4.9677">
        <ele>461</ele>
        <time>2012-10-13T06:34:51Z</time>
      </trkpt>
      <trkpt lat="47.29247" lon="4.96776">
        <ele>462</ele>
        <time>2012-10-13T06:34:53Z</time>
      </trkpt>
      <trkpt lat="47.2925" lon="4.96784">
        <ele>462</ele>
        <time>2012-10-13T06:34:57Z</time>
      </trkpt>
      <trkpt lat="47.29256" lon="4.96787">
        <ele>460</ele>
        <time>2012-10-13T06:34:59Z</time>
      </trkpt>
      <trkpt lat="47.29261" lon="4.96791">
        <ele>458</ele>
        <time>2012-10-13T06:35:02Z</time>
      </trkpt>
      <trkpt lat="47.29263" lon="4.96797">
        <ele>456</ele>
        <time>2012-10-13T06:35:05Z</time>
      </trkpt>
      <trkpt lat="47.29266" lon="4.96804">
        <ele>458</ele>
        <time>2012-10-13T06:35:12Z</time>
      </trkpt>
      <trkpt lat="47.29269" lon="4.96808">
        <ele>458</ele>
        <time>2012-10-13T06:35:15Z</time>
      </trkpt>
      <trkpt lat="47.29272" lon="4.96815">
        <ele>457</ele>
        <time>2012-10-13T06:35:18Z</time>
      </trkpt>
      <trkpt lat="47.29275" lon="4.96823">
        <ele>454</ele>
        <time>2012-10-13T06:35:21Z</time>
      </trkpt>
      <trkpt lat="47.29277" lon="4.96829">
        <ele>453</ele>
        <time>2012-10-13T06:35:24Z</time>
      </trkpt>
      <trkpt lat="47.2928" lon="4.96836">
        <ele>452</ele>
        <time>2012-10-13T06:35:27Z</time>
      </trkpt>
      <trkpt lat="47.29283" lon="4.96844">
        <ele>453</ele>
        <time>2012-10-13T06:35:30Z</time>
      </trkpt>
      <trkpt lat="47.29286" lon="4.96849">
        <ele>453</ele>
        <time>2012-10-13T06:35:33Z</time>
      </trkpt>
      <trkpt lat="47.29291" lon="4.96853">
        <ele>452</ele>
        <time>2012-10-13T06:35:36Z</time>
      </trkpt>
      <trkpt lat="47.29295" lon="4.96859">
        <ele>450</ele>
        <time>2012-10-13T06:35:39Z</time>
      </trkpt>
      <trkpt lat="47.29299" lon="4.96862">
        <ele>450</ele>
        <time>2012-10-13T06:35:42Z</time>
      </trkpt>
      <trkpt lat="47.29304" lon="4.96864">
        <ele>449</ele>
        <time>2012-10-13T06:35:46Z</time>
      </trkpt>
      <trkpt lat="47.29308" lon="4.96866">
        <ele>450</ele>
        <time>2012-10-13T06:35:50Z</time>
      </trkpt>
      <trkpt lat="47.29313" lon="4.96868">
        <ele>450</ele>
        <time>2012-10-13T06:35:53Z</time>
      </trkpt>
      <trkpt lat="47.29317" lon="4.96871">
        <ele>449</ele>
        <time>2012-10-13T06:35:56Z</time>
      </trkpt>
      <trkpt lat="47.29321" lon="4.96873">
        <ele>449</ele>
        <time>2012-10-13T06:35:59Z</time>
      </trkpt>
      <trkpt lat="47.29327" lon="4.96875">
        <ele>444</ele>
        <time>2012-10-13T06:36:03Z</time>
      </trkpt>
      <trkpt lat="47.29332" lon="4.96875">
        <ele>444</ele>
        <time>2012-10-13T06:36:06Z</time>
      </trkpt>
      <trkpt lat="47.29337" lon="4.96875">
        <ele>444</ele>
        <time>2012-10-13T06:36:11Z</time>
      </trkpt>
      <trkpt lat="47.29343" lon="4.96876">
        <ele>443</ele>
        <time>2012-10-13T06:36:16Z</time>
      </trkpt>
      <trkpt lat="47.29348" lon="4.96876">
        <ele>440</ele>
        <time>2012-10-13T06:36:20Z</time>
      </trkpt>
      <trkpt lat="47.29353" lon="4.96875">
        <ele>439</ele>
        <time>2012-10-13T06:36:23Z</time>
      </trkpt>
      <trkpt lat="47.29358" lon="4.96872">
        <ele>438</ele>
        <time>2012-10-13T06:36:26Z</time>
      </trkpt>
      <trkpt lat="47.29363" lon="4.9687">
        <ele>436</ele>
        <time>2012-10-13T06:36:30Z</time>
      </trkpt>
      <trkpt lat="47.29367" lon="4.96867">
        <ele>434</ele>
        <time>2012-10-13T06:36:33Z</time>
      </trkpt>
      <trkpt lat="47.29371" lon="4.96862">
        <ele>434</ele>
        <time>2012-10-13T06:36:36Z</time>
      </trkpt>
      <trkpt lat="47.29376" lon="4.96859">
        <ele>432</ele>
        <time>2012-10-13T06:36:41Z</time>
      </trkpt>
      <trkpt lat="47.29381" lon="4.96853">
        <ele>434</ele>
        <time>2012-10-13T06:36:46Z</time>
      </trkpt>
      <trkpt lat="47.29382" lon="4.96847">
        <ele>432</ele>
        <time>2012-10-13T06:36:51Z</time>
      </trkpt>
      <trkpt lat="47.29385" lon="4.9684">
        <ele>432</ele>
        <time>2012-10-13T06:36:55Z</time>
      </trkpt>
      <trkpt lat="47.29383" lon="4.96834">
        <ele>431</ele>
        <time>2012-10-13T06:36:58Z</time>
      </trkpt>
      <trkpt lat="47.29385" lon="4.96827">
        <ele>433</ele>
        <time>2012-10-13T06:37:02Z</time>
      </trkpt>
      <trkpt lat="47.29387" lon="4.9682">
        <ele>433</ele>
        <time>2012-10-13T06:37:05Z</time>
      </trkpt>
      <trkpt lat="47.2939" lon="4.96812">
        <ele>429</ele>
        <time>2012-10-13T06:37:09Z</time>
      </trkpt>
      <trkpt lat="47.29393" lon="4.96807">
        <ele>427</ele>
        <time>2012-10-13T06:37:11Z</time>
      </trkpt>
      <trkpt lat="47.29396" lon="4.96801">
        <ele>427</ele>
        <time>2012-10-13T06:37:16Z</time>
      </trkpt>
      <trkpt lat="47.294" lon="4.96795">
        <ele>427</ele>
        <time>2012-10-13T06:37:19Z</time>
      </trkpt>
      <trkpt lat="47.29403" lon="4.9679">
        <ele>429</ele>
        <time>2012-10-13T06:37:28Z</time>
      </trkpt>
      <trkpt lat="47.29408" lon="4.96789">
        <ele>429</ele>
        <time>2012-10-13T06:37:31Z</time>
      </trkpt>
      <trkpt lat="47.29412" lon="4.96791">
        <ele>431</ele>
        <time>2012-10-13T06:37:34Z</time>
      </trkpt>
      <trkpt lat="47.29412" lon="4.96791">
        <ele>431</ele>
        <time>2012-10-13T06:37:34Z</time>
      </trkpt>
      <trkpt lat="47.29412" lon="4.96791">
        <ele>431</ele>
        <time>2012-10-13T06:37:36Z</time>
      </trkpt>
      <trkpt lat="47.29418" lon="4.96796">
        <ele>432</ele>
        <time>2012-10-13T06:37:46Z</time>
      </trkpt>
      <trkpt lat="47.29423" lon="4.96799">
        <ele>432</ele>
        <time>2012-10-13T06:37:48Z</time>
      </trkpt>
      <trkpt lat="47.29428" lon="4.96804">
        <ele>432</ele>
        <time>2012-10-13T06:37:50Z</time>
      </trkpt>
      <trkpt lat="47.29432" lon="4.96807">
        <ele>433</ele>
        <time>2012-10-13T06:37:53Z</time>
      </trkpt>
      <trkpt lat="47.29437" lon="4.96805">
        <ele>432</ele>
        <time>2012-10-13T06:37:56Z</time>
      </trkpt>
      <trkpt lat="47.29442" lon="4.96807">
        <ele>430</ele>
        <time>2012-10-13T06:37:59Z</time>
      </trkpt>
      <trkpt lat="47.29447" lon="4.96806">
        <ele>429</ele>
        <time>2012-10-13T06:38:02Z</time>
      </trkpt>
      <trkpt lat="47.29453" lon="4.96809">
        <ele>429</ele>
        <time>2012-10-13T06:38:06Z</time>
      </trkpt>
      <trkpt lat="47.29459" lon="4.96808">
        <ele>430</ele>
        <time>2012-10-13T06:38:12Z</time>
      </trkpt>
      <trkpt lat="47.29466" lon="4.96809">
        <ele>430</ele>
        <time>2012-10-13T06:38:17Z</time>
      </trkpt>
      <trkpt lat="47.29472" lon="4.96808">
        <ele>429</ele>
        <time>2012-10-13T06:38:20Z</time>
      </trkpt>
      <trkpt lat="47.29477" lon="4.96808">
        <ele>429</ele>
        <time>2012-10-13T06:38:23Z</time>
      </trkpt>
      <trkpt lat="47.29483" lon="4.9681">
        <ele>429</ele>
        <time>2012-10-13T06:38:26Z</time>
      </trkpt>
      <trkpt lat="47.29489" lon="4.96809">
        <ele>428</ele>
        <time>2012-10-13T06:38:29Z</time>
      </trkpt>
      <trkpt lat="47.29495" lon="4.9681">
        <ele>429</ele>
        <time>2012-10-13T06:38:33Z</time>
      </trkpt>
      <trkpt lat="47.295" lon="4.96811">
        <ele>429</ele>
        <time>2012-10-13T06:38:37Z</time>
      </trkpt>
      <trkpt lat="47.29505" lon="4.96811">
        <ele>430</ele>
        <time>2012-10-13T06:38:40Z</time>
      </trkpt>
      <trkpt lat="47.29511" lon="4.96814">
        <ele>428</ele>
        <time>2012-10-13T06:38:48Z</time>
      </trkpt>
      <trkpt lat="47.29514" lon="4.96821">
        <ele>426</ele>
        <time>2012-10-13T06:38:52Z</time>
      </trkpt>
      <trkpt lat="47.29516" lon="4.96828">
        <ele>424</ele>
        <time>2012-10-13T06:39:00Z</time>
      </trkpt>
      <trkpt lat="47.29518" lon="4.96834">
        <ele>423</ele>
        <time>2012-10-13T06:39:18Z</time>
      </trkpt>
      <trkpt lat="47.29521" lon="4.96839">
        <ele>422</ele>
        <time>2012-10-13T06:39:22Z</time>
      </trkpt>
      <trkpt lat="47.29524" lon="4.96844">
        <ele>423</ele>
        <time>2012-10-13T06:39:26Z</time>
      </trkpt>
      <trkpt lat="47.29529" lon="4.96849">
        <ele>423</ele>
        <time>2012-10-13T06:39:33Z</time>
      </trkpt>
      <trkpt lat="47.29532" lon="4.96853">
        <ele>419</ele>
        <time>2012-10-13T06:39:42Z</time>
      </trkpt>
      <trkpt lat="47.29535" lon="4.96859">
        <ele>419</ele>
        <time>2012-10-13T06:39:47Z</time>
      </trkpt>
      <trkpt lat="47.2954" lon="4.96864">
        <ele>420</ele>
        <time>2012-10-13T06:39:50Z</time>
      </trkpt>
      <trkpt lat="47.29544" lon="4.96869">
        <ele>420</ele>
        <time>2012-10-13T06:39:54Z</time>
      </trkpt>
      <trkpt lat="47.29549" lon="4.96872">
        <ele>419</ele>
        <time>2012-10-13T06:39:59Z</time>
      </trkpt>
      <trkpt lat="47.29554" lon="4.96875">
        <ele>417</ele>
        <time>2012-10-13T06:40:02Z</time>
      </trkpt>
      <trkpt lat="47.29558" lon="4.96877">
        <ele>414</ele>
        <time>2012-10-13T06:40:06Z</time>
      </trkpt>
      <trkpt lat="47.29563" lon="4.96879">
        <ele>413</ele>
        <time>2012-10-13T06:40:10Z</time>
      </trkpt>
      <trkpt lat="47.29565" lon="4.96885">
        <ele>413</ele>
        <time>2012-10-13T06:40:20Z</time>
      </trkpt>
      <trkpt lat="47.29568" lon="4.9689">
        <ele>412</ele>
        <time>2012-10-13T06:40:29Z</time>
      </trkpt>
      <trkpt lat="47.29568" lon="4.9689">
        <ele>412</ele>
        <time>2012-10-13T06:40:29Z</time>
      </trkpt>
      <trkpt lat="47.29568" lon="4.9689">
        <ele>412</ele>
        <time>2012-10-13T06:40:30Z</time>
      </trkpt>
      <trkpt lat="47.29571" lon="4.96897">
        <ele>412</ele>
        <time>2012-10-13T06:40:37Z</time>
      </trkpt>
      <trkpt lat="47.29574" lon="4.96902">
        <ele>413</ele>
        <time>2012-10-13T06:40:39Z</time>
      </trkpt>
      <trkpt lat="47.29578" lon="4.96909">
        <ele>412</ele>
        <time>2012-10-13T06:40:43Z</time>
      </trkpt>
      <trkpt lat="47.29581" lon="4.96915">
        <ele>412</ele>
        <time>2012-10-13T06:40:46Z</time>
      </trkpt>
      <trkpt lat="47.29585" lon="4.96922">
        <ele>410</ele>
        <time>2012-10-13T06:40:50Z</time>
      </trkpt>
      <trkpt lat="47.29588" lon="4.9693">
        <ele>411</ele>
        <time>2012-10-13T06:40:53Z</time>
      </trkpt>
      <trkpt lat="47.29591" lon="4.96937">
        <ele>410</ele>
        <time>2012-10-13T06:40:57Z</time>
      </trkpt>
      <trkpt lat="47.29595" lon="4.9694">
        <ele>406</ele>
        <time>2012-10-13T06:44:15Z</time>
      </trkpt>
      <trkpt lat="47.29597" lon="4.96948">
        <ele>409</ele>
        <time>2012-10-13T06:44:19Z</time>
      </trkpt>
      <trkpt lat="47.296" lon="4.96955">
        <ele>410</ele>
        <time>2012-10-13T06:44:24Z</time>
      </trkpt>
      <trkpt lat="47.29604" lon="4.96959">
        <ele>412</ele>
        <time>2012-10-13T06:44:27Z</time>
      </trkpt>
      <trkpt lat="47.29603" lon="4.96968">
        <ele>413</ele>
        <time>2012-10-13T06:44:31Z</time>
      </trkpt>
      <trkpt lat="47.29604" lon="4.96975">
        <ele>414</ele>
        <time>2012-10-13T06:44:33Z</time>
      </trkpt>
      <trkpt lat="47.29609" lon="4.9698">
        <ele>413</ele>
        <time>2012-10-13T06:44:36Z</time>
      </trkpt>
      <trkpt lat="47.29613" lon="4.96985">
        <ele>415</ele>
        <time>2012-10-13T06:44:39Z</time>
      </trkpt>
      <trkpt lat="47.29616" lon="4.96992">
        <ele>416</ele>
        <time>2012-10-13T06:44:43Z</time>
      </trkpt>
      <trkpt lat="47.29621" lon="4.96995">
        <ele>417</ele>
        <time>2012-10-13T06:44:47Z</time>
      </trkpt>
      <trkpt lat="47.29625" lon="4.97">
        <ele>418</ele>
        <time>2012-10-13T06:44:52Z</time>
      </trkpt>
      <trkpt lat="47.2963" lon="4.97005">
        <ele>418</ele>
        <time>2012-10-13T06:44:57Z</time>
      </trkpt>
      <trkpt lat="47.29633" lon="4.97013">
        <ele>419</ele>
        <time>2012-10-13T06:45:00Z</time>
      </trkpt>
      <trkpt lat="47.2964" lon="4.97016">
        <ele>419</ele>
        <time>2012-10-13T06:45:04Z</time>
      </trkpt>
      <trkpt lat="47.29646" lon="4.9702">
        <ele>420</ele>
        <time>2012-10-13T06:45:07Z</time>
      </trkpt>
      <trkpt lat="47.2965" lon="4.97023">
        <ele>419</ele>
        <time>2012-10-13T06:45:11Z</time>
      </trkpt>
      <trkpt lat="47.29655" lon="4.97026">
        <ele>419</ele>
        <time>2012-10-13T06:45:15Z</time>
      </trkpt>
      <trkpt lat="47.29661" lon="4.97029">
        <ele>419</ele>
        <time>2012-10-13T06:45:19Z</time>
      </trkpt>
      <trkpt lat="47.29665" lon="4.97031">
        <ele>419</ele>
        <time>2012-10-13T06:45:22Z</time>
      </trkpt>
      <trkpt lat="47.2967" lon="4.97032">
        <ele>420</ele>
        <time>2012-10-13T06:45:27Z</time>
      </trkpt>
      <trkpt lat="47.29675" lon="4.97035">
        <ele>420</ele>
        <time>2012-10-13T06:45:35Z</time>
      </trkpt>
      <trkpt lat="47.29681" lon="4.97036">
        <ele>420</ele>
        <time>2012-10-13T06:45:38Z</time>
      </trkpt>
      <trkpt lat="47.29686" lon="4.97036">
        <ele>419</ele>
        <time>2012-10-13T06:45:40Z</time>
      </trkpt>
      <trkpt lat="47.29692" lon="4.97038">
        <ele>416</ele>
        <time>2012-10-13T06:45:42Z</time>
      </trkpt>
      <trkpt lat="47.29697" lon="4.97038">
        <ele>418</ele>
        <time>2012-10-13T06:45:45Z</time>
      </trkpt>
      <trkpt lat="47.29702" lon="4.97037">
        <ele>419</ele>
        <time>2012-10-13T06:45:49Z</time>
      </trkpt>
      <trkpt lat="47.29707" lon="4.97038">
        <ele>420</ele>
        <time>2012-10-13T06:45:54Z</time>
      </trkpt>
      <trkpt lat="47.29712" lon="4.97038">
        <ele>420</ele>
        <time>2012-10-13T06:45:58Z</time>
      </trkpt>
      <trkpt lat="47.29717" lon="4.97038">
        <ele>421</ele>
        <time>2012-10-13T06:46:03Z</time>
      </trkpt>
      <trkpt lat="47.29723" lon="4.97041">
        <ele>422</ele>
        <time>2012-10-13T06:46:07Z</time>
      </trkpt>
      <trkpt lat="47.29728" lon="4.97042">
        <ele>422</ele>
        <time>2012-10-13T06:46:11Z</time>
      </trkpt>
      <trkpt lat="47.29733" lon="4.97044">
        <ele>422</ele>
        <time>2012-10-13T06:46:14Z</time>
      </trkpt>
      <trkpt lat="47.29738" lon="4.97043">
        <ele>421</ele>
        <time>2012-10-13T06:46:18Z</time>
      </trkpt>
      <trkpt lat="47.29738" lon="4.97043">
        <ele>421</ele>
        <time>2012-10-13T06:46:18Z</time>
      </trkpt>
      <trkpt lat="47.29738" lon="4.97043">
        <ele>422</ele>
        <time>2012-10-13T06:46:21Z</time>
      </trkpt>
      <trkpt lat="47.29744" lon="4.97043">
        <ele>422</ele>
        <time>2012-10-13T06:46:27Z</time>
      </trkpt>
      <trkpt lat="47.29751" lon="4.97048">
        <ele>422</ele>
        <time>2012-10-13T06:46:31Z</time>
      </trkpt>
      <trkpt lat="47.29754" lon="4.97052">
        <ele>424</ele>
        <time>2012-10-13T06:46:34Z</time>
      </trkpt>
      <trkpt lat="47.29758" lon="4.97058">
        <ele>426</ele>
        <time>2012-10-13T06:46:38Z</time>
      </trkpt>
      <trkpt lat="47.29758" lon="4.97065">
        <ele>429</ele>
        <time>2012-10-13T06:46:44Z</time>
      </trkpt>
      <trkpt lat="47.29747" lon="4.97069">
        <ele>430</ele>
        <time>2012-10-13T06:46:58Z</time>
      </trkpt>
      <trkpt lat="47.29742" lon="4.97071">
        <ele>431</ele>
        <time>2012-10-13T06:47:00Z</time>
      </trkpt>
      <trkpt lat="47.29738" lon="4.97075">
        <ele>431</ele>
        <time>2012-10-13T06:47:02Z</time>
      </trkpt>
      <trkpt lat="47.2974" lon="4.97082">
        <ele>431</ele>
        <time>2012-10-13T06:47:06Z</time>
      </trkpt>
      <trkpt lat="47.29736" lon="4.97087">
        <ele>432</ele>
        <time>2012-10-13T06:47:12Z</time>
      </trkpt>
      <trkpt lat="47.29736" lon="4.97095">
        <ele>436</ele>
        <time>2012-10-13T06:47:15Z</time>
      </trkpt>
      <trkpt lat="47.29736" lon="4.97102">
        <ele>434</ele>
        <time>2012-10-13T06:47:18Z</time>
      </trkpt>
      <trkpt lat="47.29735" lon="4.9711">
        <ele>433</ele>
        <time>2012-10-13T06:47:22Z</time>
      </trkpt>
      <trkpt lat="47.29733" lon="4.97117">
        <ele>435</ele>
        <time>2012-10-13T06:47:25Z</time>
      </trkpt>
      <trkpt lat="47.29729" lon="4.97124">
        <ele>434</ele>
        <time>2012-10-13T06:47:29Z</time>
      </trkpt>
      <trkpt lat="47.29726" lon="4.97129">
        <ele>435</ele>
        <time>2012-10-13T06:47:32Z</time>
      </trkpt>
      <trkpt lat="47.29723" lon="4.97135">
        <ele>435</ele>
        <time>2012-10-13T06:47:36Z</time>
      </trkpt>
      <trkpt lat="47.29718" lon="4.97139">
        <ele>436</ele>
        <time>2012-10-13T06:47:39Z</time>
      </trkpt>
      <trkpt lat="47.29714" lon="4.97144">
        <ele>436</ele>
        <time>2012-10-13T06:47:42Z</time>
      </trkpt>
      <trkpt lat="47.29711" lon="4.9715">
        <ele>436</ele>
        <time>2012-10-13T06:47:45Z</time>
      </trkpt>
      <trkpt lat="47.29708" lon="4.97155">
        <ele>436</ele>
        <time>2012-10-13T06:47:48Z</time>
      </trkpt>
      <trkpt lat="47.29704" lon="4.97161">
        <ele>437</ele>
        <time>2012-10-13T06:47:51Z</time>
      </trkpt>
      <trkpt lat="47.297" lon="4.97167">
        <ele>437</ele>
        <time>2012-10-13T06:47:55Z</time>
      </trkpt>
      <trkpt lat="47.29696" lon="4.9717">
        <ele>437</ele>
        <time>2012-10-13T06:47:57Z</time>
      </trkpt>
      <trkpt lat="47.29692" lon="4.97175">
        <ele>438</ele>
        <time>2012-10-13T06:48:00Z</time>
      </trkpt>
      <trkpt lat="47.29687" lon="4.97181">
        <ele>439</ele>
        <time>2012-10-13T06:48:04Z</time>
      </trkpt>
      <trkpt lat="47.29688" lon="4.97189">
        <ele>440</ele>
        <time>2012-10-13T06:48:08Z</time>
      </trkpt>
      <trkpt lat="47.29692" lon="4.97192">
        <ele>440</ele>
        <time>2012-10-13T06:48:13Z</time>
      </trkpt>
      <trkpt lat="47.29697" lon="4.9719">
        <ele>439</ele>
        <time>2012-10-13T06:48:15Z</time>
      </trkpt>
      <trkpt lat="47.29702" lon="4.97187">
        <ele>438</ele>
        <time>2012-10-13T06:48:18Z</time>
      </trkpt>
      <trkpt lat="47.29706" lon="4.97183">
        <ele>439</ele>
        <time>2012-10-13T06:48:21Z</time>
      </trkpt>
      <trkpt lat="47.29712" lon="4.97182">
        <ele>438</ele>
        <time>2012-10-13T06:48:24Z</time>
      </trkpt>
      <trkpt lat="47.29717" lon="4.97181">
        <ele>437</ele>
        <time>2012-10-13T06:48:27Z</time>
      </trkpt>
      <trkpt lat="47.29722" lon="4.97179">
        <ele>435</ele>
        <time>2012-10-13T06:48:30Z</time>
      </trkpt>
      <trkpt lat="47.29727" lon="4.97176">
        <ele>435</ele>
        <time>2012-10-13T06:48:33Z</time>
      </trkpt>
      <trkpt lat="47.29732" lon="4.97174">
        <ele>434</ele>
        <time>2012-10-13T06:48:36Z</time>
      </trkpt>
      <trkpt lat="47.29738" lon="4.97172">
        <ele>433</ele>
        <time>2012-10-13T06:48:39Z</time>
      </trkpt>
      <trkpt lat="47.29744" lon="4.97173">
        <ele>430</ele>
        <time>2012-10-13T06:48:43Z</time>
      </trkpt>
      <trkpt lat="47.29749" lon="4.97172">
        <ele>429</ele>
        <time>2012-10-13T06:48:46Z</time>
      </trkpt>
      <trkpt lat="47.29747" lon="4.97163">
        <ele>429</ele>
        <time>2012-10-13T06:48:51Z</time>
      </trkpt>
      <trkpt lat="47.29746" lon="4.97155">
        <ele>429</ele>
        <time>2012-10-13T06:48:54Z</time>
      </trkpt>
      <trkpt lat="47.29746" lon="4.97148">
        <ele>429</ele>
        <time>2012-10-13T06:48:57Z</time>
      </trkpt>
      <trkpt lat="47.29745" lon="4.97142">
        <ele>428</ele>
        <time>2012-10-13T06:49:00Z</time>
      </trkpt>
      <trkpt lat="47.29742" lon="4.97134">
        <ele>427</ele>
        <time>2012-10-13T06:49:04Z</time>
      </trkpt>
      <trkpt lat="47.2974" lon="4.97128">
        <ele>426</ele>
        <time>2012-10-13T06:49:08Z</time>
      </trkpt>
      <trkpt lat="47.29736" lon="4.97124">
        <ele>427</ele>
        <time>2012-10-13T06:49:14Z</time>
      </trkpt>
      <trkpt lat="47.29732" lon="4.97128">
        <ele>434</ele>
        <time>2012-10-13T06:53:38Z</time>
      </trkpt>
      <trkpt lat="47.29727" lon="4.97133">
        <ele>436</ele>
        <time>2012-10-13T06:53:43Z</time>
      </trkpt>
      <trkpt lat="47.29724" lon="4.97137">
        <ele>437</ele>
        <time>2012-10-13T06:53:47Z</time>
      </trkpt>
      <trkpt lat="47.29718" lon="4.97137">
        <ele>438</ele>
        <time>2012-10-13T06:53:51Z</time>
      </trkpt>
      <trkpt lat="47.29713" lon="4.97134">
        <ele>437</ele>
        <time>2012-10-13T06:53:55Z</time>
      </trkpt>
      <trkpt lat="47.29708" lon="4.97132">
        <ele>436</ele>
        <time>2012-10-13T06:53:59Z</time>
      </trkpt>
      <trkpt lat="47.29703" lon="4.97134">
        <ele>436</ele>
        <time>2012-10-13T06:54:05Z</time>
      </trkpt>
      <trkpt lat="47.29698" lon="4.97137">
        <ele>435</ele>
        <time>2012-10-13T06:54:11Z</time>
      </trkpt>
      <trkpt lat="47.29694" lon="4.97142">
        <ele>435</ele>
        <time>2012-10-13T06:54:15Z</time>
      </trkpt>
      <trkpt lat="47.29691" lon="4.97147">
        <ele>438</ele>
        <time>2012-10-13T06:54:18Z</time>
      </trkpt>
      <trkpt lat="47.29686" lon="4.9715">
        <ele>438</ele>
        <time>2012-10-13T06:54:21Z</time>
      </trkpt>
      <trkpt lat="47.2968" lon="4.97149">
        <ele>438</ele>
        <time>2012-10-13T06:54:24Z</time>
      </trkpt>
      <trkpt lat="47.29674" lon="4.97148">
        <ele>438</ele>
        <time>2012-10-13T06:54:28Z</time>
      </trkpt>
      <trkpt lat="47.29669" lon="4.97148">
        <ele>437</ele>
        <time>2012-10-13T06:54:33Z</time>
      </trkpt>
      <trkpt lat="47.29664" lon="4.97148">
        <ele>438</ele>
        <time>2012-10-13T06:54:35Z</time>
      </trkpt>
      <trkpt lat="47.2966" lon="4.97145">
        <ele>438</ele>
        <time>2012-10-13T06:54:38Z</time>
      </trkpt>
      <trkpt lat="47.29661" lon="4.97137">
        <ele>437</ele>
        <time>2012-10-13T06:54:43Z</time>
      </trkpt>
      <trkpt lat="47.29661" lon="4.97129">
        <ele>436</ele>
        <time>2012-10-13T06:54:57Z</time>
      </trkpt>
      <trkpt lat="47.29661" lon="4.97121">
        <ele>436</ele>
        <time>2012-10-13T06:55:03Z</time>
      </trkpt>
      <trkpt lat="47.29661" lon="4.97114">
        <ele>436</ele>
        <time>2012-10-13T06:55:07Z</time>
      </trkpt>
      <trkpt lat="47.29666" lon="4.97108">
        <ele>435</ele>
        <time>2012-10-13T06:55:12Z</time>
      </trkpt>
      <trkpt lat="47.2967" lon="4.97102">
        <ele>432</ele>
        <time>2012-10-13T06:55:17Z</time>
      </trkpt>
      <trkpt lat="47.29674" lon="4.97097">
        <ele>432</ele>
        <time>2012-10-13T06:55:23Z</time>
      </trkpt>
      <trkpt lat="47.2967" lon="4.97093">
        <ele>432</ele>
        <time>2012-10-13T06:55:27Z</time>
      </trkpt>
      <trkpt lat="47.29666" lon="4.97086">
        <ele>431</ele>
        <time>2012-10-13T06:55:32Z</time>
      </trkpt>
      <trkpt lat="47.2966" lon="4.97087">
        <ele>431</ele>
        <time>2012-10-13T06:55:40Z</time>
      </trkpt>
      <trkpt lat="47.29656" lon="4.97085">
        <ele>430</ele>
        <time>2012-10-13T06:55:45Z</time>
      </trkpt>
      <trkpt lat="47.29648" lon="4.97085">
        <ele>431</ele>
        <time>2012-10-13T06:55:51Z</time>
      </trkpt>
      <trkpt lat="47.2964" lon="4.97084">
        <ele>432</ele>
        <time>2012-10-13T06:55:57Z</time>
      </trkpt>
      <trkpt lat="47.29635" lon="4.97085">
        <ele>431</ele>
        <time>2012-10-13T06:56:04Z</time>
      </trkpt>
      <trkpt lat="47.2963" lon="4.97084">
        <ele>431</ele>
        <time>2012-10-13T06:56:09Z</time>
      </trkpt>
      <trkpt lat="47.29625" lon="4.97084">
        <ele>433</ele>
        <time>2012-10-13T06:56:16Z</time>
      </trkpt>
      <trkpt lat="47.29622" lon="4.97078">
        <ele>433</ele>
        <time>2012-10-13T06:56:29Z</time>
      </trkpt>
      <trkpt lat="47.29616" lon="4.97077">
        <ele>432</ele>
        <time>2012-10-13T06:56:35Z</time>
      </trkpt>
      <trkpt lat="47.2961" lon="4.97076">
        <ele>430</ele>
        <time>2012-10-13T06:56:40Z</time>
      </trkpt>
      <trkpt lat="47.29605" lon="4.97075">
        <ele>430</ele>
        <time>2012-10-13T06:56:45Z</time>
      </trkpt>
      <trkpt lat="47.296" lon="4.97074">
        <ele>432</ele>
        <time>2012-10-13T06:56:55Z</time>
      </trkpt>
      <trkpt lat="47.29595" lon="4.9707">
        <ele>433</ele>
        <time>2012-10-13T06:56:59Z</time>
      </trkpt>
      <trkpt lat="47.2959" lon="4.97072">
        <ele>433</ele>
        <time>2012-10-13T06:57:04Z</time>
      </trkpt>
      <trkpt lat="47.29585" lon="4.97074">
        <ele>433</ele>
        <time>2012-10-13T06:57:09Z</time>
      </trkpt>
      <trkpt lat="47.2958" lon="4.97077">
        <ele>434</ele>
        <time>2012-10-13T06:57:14Z</time>
      </trkpt>
      <trkpt lat="47.29574" lon="4.97077">
        <ele>435</ele>
        <time>2012-10-13T06:57:19Z</time>
      </trkpt>
      <trkpt lat="47.29569" lon="4.97079">
        <ele>436</ele>
        <time>2012-10-13T06:57:22Z</time>
      </trkpt>
      <trkpt lat="47.29564" lon="4.97081">
        <ele>437</ele>
        <time>2012-10-13T06:57:26Z</time>
      </trkpt>
      <trkpt lat="47.29559" lon="4.97081">
        <ele>435</ele>
        <time>2012-10-13T06:57:29Z</time>
      </trkpt>
      <trkpt lat="47.29555" lon="4.97085">
        <ele>435</ele>
        <time>2012-10-13T06:57:32Z</time>
      </trkpt>
      <trkpt lat="47.29551" lon="4.97089">
        <ele>435</ele>
        <time>2012-10-13T06:57:36Z</time>
      </trkpt>
      <trkpt lat="47.29547" lon="4.97093">
        <ele>433</ele>
        <time>2012-10-13T06:57:39Z</time>
      </trkpt>
      <trkpt lat="47.29542" lon="4.97096">
        <ele>433</ele>
        <time>2012-10-13T06:57:42Z</time>
      </trkpt>
      <trkpt lat="47.29538" lon="4.97099">
        <ele>433</ele>
        <time>2012-10-13T06:57:45Z</time>
      </trkpt>
      <trkpt lat="47.29535" lon="4.97104">
        <ele>434</ele>
        <time>2012-10-13T06:57:49Z</time>
      </trkpt>
      <trkpt lat="47.2953" lon="4.97109">
        <ele>434</ele>
        <time>2012-10-13T06:57:53Z</time>
      </trkpt>
      <trkpt lat="47.29527" lon="4.97116">
        <ele>433</ele>
        <time>2012-10-13T06:57:57Z</time>
      </trkpt>
      <trkpt lat="47.29523" lon="4.9712">
        <ele>433</ele>
        <time>2012-10-13T06:58:01Z</time>
      </trkpt>
      <trkpt lat="47.29519" lon="4.97125">
        <ele>433</ele>
        <time>2012-10-13T06:58:05Z</time>
      </trkpt>
      <trkpt lat="47.29515" lon="4.97131">
        <ele>433</ele>
        <time>2012-10-13T06:58:08Z</time>
      </trkpt>
      <trkpt lat="47.29512" lon="4.97137">
        <ele>432</ele>
        <time>2012-10-13T06:58:11Z</time>
      </trkpt>
      <trkpt lat="47.29508" lon="4.97142">
        <ele>431</ele>
        <time>2012-10-13T06:58:14Z</time>
      </trkpt>
      <trkpt lat="47.29505" lon="4.97147">
        <ele>432</ele>
        <time>2012-10-13T06:58:18Z</time>
      </trkpt>
      <trkpt lat="47.295" lon="4.97152">
        <ele>431</ele>
        <time>2012-10-13T06:58:22Z</time>
      </trkpt>
      <trkpt lat="47.295" lon="4.97159">
        <ele>432</ele>
        <time>2012-10-13T06:58:26Z</time>
      </trkpt>
      <trkpt lat="47.29499" lon="4.97167">
        <ele>431</ele>
        <time>2012-10-13T06:58:30Z</time>
      </trkpt>
      <trkpt lat="47.29497" lon="4.97174">
        <ele>430</ele>
        <time>2012-10-13T06:58:33Z</time>
      </trkpt>
      <trkpt lat="47.29492" lon="4.97177">
        <ele>429</ele>
        <time>2012-10-13T06:58:38Z</time>
      </trkpt>
      <trkpt lat="47.29489" lon="4.97184">
        <ele>430</ele>
        <time>2012-10-13T06:58:42Z</time>
      </trkpt>
      <trkpt lat="47.29485" lon="4.97189">
        <ele>430</ele>
        <time>2012-10-13T06:58:46Z</time>
      </trkpt>
      <trkpt lat="47.29481" lon="4.97194">
        <ele>431</ele>
        <time>2012-10-13T06:58:49Z</time>
      </trkpt>
      <trkpt lat="47.29476" lon="4.97198">
        <ele>432</ele>
        <time>2012-10-13T06:58:53Z</time>
      </trkpt>
      <trkpt lat="47.29472" lon="4.97202">
        <ele>433</ele>
        <time>2012-10-13T06:58:56Z</time>
      </trkpt>
      <trkpt lat="47.29469" lon="4.9721">
        <ele>435</ele>
        <time>2012-10-13T06:58:59Z</time>
      </trkpt>
      <trkpt lat="47.29464" lon="4.97216">
        <ele>435</ele>
        <time>2012-10-13T06:59:03Z</time>
      </trkpt>
      <trkpt lat="47.2946" lon="4.97218">
        <ele>433</ele>
        <time>2012-10-13T06:59:07Z</time>
      </trkpt>
      <trkpt lat="47.29456" lon="4.97222">
        <ele>433</ele>
        <time>2012-10-13T06:59:11Z</time>
      </trkpt>
      <trkpt lat="47.29453" lon="4.97227">
        <ele>433</ele>
        <time>2012-10-13T06:59:15Z</time>
      </trkpt>
      <trkpt lat="47.2945" lon="4.97233">
        <ele>433</ele>
        <time>2012-10-13T06:59:20Z</time>
      </trkpt>
      <trkpt lat="47.29445" lon="4.97237">
        <ele>433</ele>
        <time>2012-10-13T06:59:25Z</time>
      </trkpt>
      <trkpt lat="47.29442" lon="4.97242">
        <ele>432</ele>
        <time>2012-10-13T06:59:28Z</time>
      </trkpt>
      <trkpt lat="47.29438" lon="4.97247">
        <ele>433</ele>
        <time>2012-10-13T06:59:31Z</time>
      </trkpt>
      <trkpt lat="47.29433" lon="4.97252">
        <ele>433</ele>
        <time>2012-10-13T06:59:35Z</time>
      </trkpt>
      <trkpt lat="47.29429" lon="4.97258">
        <ele>434</ele>
        <time>2012-10-13T06:59:38Z</time>
      </trkpt>
      <trkpt lat="47.29424" lon="4.97262">
        <ele>434</ele>
        <time>2012-10-13T06:59:41Z</time>
      </trkpt>
      <trkpt lat="47.29418" lon="4.97266">
        <ele>433</ele>
        <time>2012-10-13T06:59:45Z</time>
      </trkpt>
      <trkpt lat="47.29413" lon="4.9727">
        <ele>433</ele>
        <time>2012-10-13T06:59:48Z</time>
      </trkpt>
      <trkpt lat="47.29409" lon="4.97274">
        <ele>434</ele>
        <time>2012-10-13T06:59:50Z</time>
      </trkpt>
      <trkpt lat="47.29405" lon="4.9728">
        <ele>435</ele>
        <time>2012-10-13T06:59:53Z</time>
      </trkpt>
      <trkpt lat="47.29402" lon="4.97286">
        <ele>435</ele>
        <time>2012-10-13T06:59:56Z</time>
      </trkpt>
      <trkpt lat="47.29398" lon="4.9729">
        <ele>434</ele>
        <time>2012-10-13T06:59:59Z</time>
      </trkpt>
      <trkpt lat="47.29393" lon="4.97292">
        <ele>431</ele>
        <time>2012-10-13T07:00:02Z</time>
      </trkpt>
      <trkpt lat="47.29389" lon="4.97294">
        <ele>432</ele>
        <time>2012-10-13T07:00:05Z</time>
      </trkpt>
      <trkpt lat="47.29384" lon="4.97299">
        <ele>431</ele>
        <time>2012-10-13T07:00:09Z</time>
      </trkpt>
      <trkpt lat="47.2938" lon="4.97302">
        <ele>431</ele>
        <time>2012-10-13T07:00:12Z</time>
      </trkpt>
      <trkpt lat="47.29377" lon="4.97309">
        <ele>431</ele>
        <time>2012-10-13T07:00:15Z</time>
      </trkpt>
      <trkpt lat="47.29372" lon="4.97314">
        <ele>431</ele>
        <time>2012-10-13T07:00:18Z</time>
      </trkpt>
      <trkpt lat="47.29368" lon="4.97319">
        <ele>432</ele>
        <time>2012-10-13T07:00:21Z</time>
      </trkpt>
      <trkpt lat="47.29364" lon="4.97324">
        <ele>431</ele>
        <time>2012-10-13T07:00:24Z</time>
      </trkpt>
      <trkpt lat="47.2936" lon="4.97329">
        <ele>431</ele>
        <time>2012-10-13T07:00:27Z</time>
      </trkpt>
      <trkpt lat="47.29357" lon="4.97334">
        <ele>431</ele>
        <time>2012-10-13T07:00:30Z</time>
      </trkpt>
      <trkpt lat="47.29352" lon="4.97339">
        <ele>431</ele>
        <time>2012-10-13T07:00:33Z</time>
      </trkpt>
      <trkpt lat="47.2935" lon="4.97345">
        <ele>431</ele>
        <time>2012-10-13T07:00:36Z</time>
      </trkpt>
      <trkpt lat="47.29346" lon="4.97352">
        <ele>433</ele>
        <time>2012-10-13T07:00:40Z</time>
      </trkpt>
      <trkpt lat="47.29343" lon="4.97357">
        <ele>433</ele>
        <time>2012-10-13T07:00:43Z</time>
      </trkpt>
      <trkpt lat="47.2934" lon="4.97362">
        <ele>433</ele>
        <time>2012-10-13T07:00:46Z</time>
      </trkpt>
      <trkpt lat="47.29337" lon="4.9737">
        <ele>431</ele>
        <time>2012-10-13T07:00:50Z</time>
      </trkpt>
      <trkpt lat="47.29334" lon="4.97376">
        <ele>431</ele>
        <time>2012-10-13T07:00:54Z</time>
      </trkpt>
      <trkpt lat="47.29331" lon="4.97383">
        <ele>432</ele>
        <time>2012-10-13T07:00:58Z</time>
      </trkpt>
      <trkpt lat="47.29327" lon="4.97387">
        <ele>432</ele>
        <time>2012-10-13T07:01:00Z</time>
      </trkpt>
      <trkpt lat="47.29326" lon="4.97394">
        <ele>433</ele>
        <time>2012-10-13T07:01:04Z</time>
      </trkpt>
      <trkpt lat="47.29323" lon="4.97399">
        <ele>435</ele>
        <time>2012-10-13T07:01:07Z</time>
      </trkpt>
      <trkpt lat="47.29319" lon="4.97404">
        <ele>434</ele>
        <time>2012-10-13T07:01:10Z</time>
      </trkpt>
      <trkpt lat="47.29315" lon="4.97409">
        <ele>434</ele>
        <time>2012-10-13T07:01:13Z</time>
      </trkpt>
      <trkpt lat="47.29312" lon="4.97417">
        <ele>433</ele>
        <time>2012-10-13T07:01:16Z</time>
      </trkpt>
      <trkpt lat="47.29308" lon="4.97423">
        <ele>433</ele>
        <time>2012-10-13T07:01:20Z</time>
      </trkpt>
      <trkpt lat="47.29305" lon="4.97428">
        <ele>434</ele>
        <time>2012-10-13T07:01:24Z</time>
      </trkpt>
      <trkpt lat="47.29302" lon="4.97434">
        <ele>436</ele>
        <time>2012-10-13T07:01:28Z</time>
      </trkpt>
      <trkpt lat="47.29299" lon="4.97439">
        <ele>438</ele>
        <time>2012-10-13T07:01:42Z</time>
      </trkpt>
      <trkpt lat="47.29294" lon="4.97441">
        <ele>432</ele>
        <time>2012-10-13T07:03:09Z</time>
      </trkpt>
      <trkpt lat="47.29292" lon="4.97446">
        <ele>430</ele>
        <time>2012-10-13T07:03:13Z</time>
      </trkpt>
      <trkpt lat="47.29289" lon="4.97452">
        <ele>431</ele>
        <time>2012-10-13T07:03:16Z</time>
      </trkpt>
      <trkpt lat="47.29286" lon="4.97458">
        <ele>430</ele>
        <time>2012-10-13T07:03:20Z</time>
      </trkpt>
      <trkpt lat="47.29283" lon="4.97464">
        <ele>431</ele>
        <time>2012-10-13T07:03:23Z</time>
      </trkpt>
      <trkpt lat="47.2928" lon="4.97469">
        <ele>432</ele>
        <time>2012-10-13T07:03:27Z</time>
      </trkpt>
      <trkpt lat="47.29276" lon="4.97476">
        <ele>431</ele>
        <time>2012-10-13T07:03:30Z</time>
      </trkpt>
      <trkpt lat="47.29273" lon="4.9748">
        <ele>431</ele>
        <time>2012-10-13T07:03:33Z</time>
      </trkpt>
      <trkpt lat="47.29269" lon="4.97485">
        <ele>430</ele>
        <time>2012-10-13T07:03:36Z</time>
      </trkpt>
      <trkpt lat="47.29266" lon="4.97493">
        <ele>430</ele>
        <time>2012-10-13T07:03:40Z</time>
      </trkpt>
      <trkpt lat="47.29263" lon="4.97501">
        <ele>430</ele>
        <time>2012-10-13T07:03:44Z</time>
      </trkpt>
      <trkpt lat="47.29259" lon="4.97508">
        <ele>430</ele>
        <time>2012-10-13T07:03:47Z</time>
      </trkpt>
      <trkpt lat="47.29256" lon="4.97513">
        <ele>429</ele>
        <time>2012-10-13T07:03:49Z</time>
      </trkpt>
      <trkpt lat="47.29253" lon="4.9752">
        <ele>429</ele>
        <time>2012-10-13T07:03:52Z</time>
      </trkpt>
      <trkpt lat="47.2925" lon="4.97527">
        <ele>429</ele>
        <time>2012-10-13T07:03:55Z</time>
      </trkpt>
      <trkpt lat="47.29248" lon="4.97533">
        <ele>430</ele>
        <time>2012-10-13T07:03:57Z</time>
      </trkpt>
      <trkpt lat="47.29247" lon="4.9754">
        <ele>432</ele>
        <time>2012-10-13T07:04:00Z</time>
      </trkpt>
      <trkpt lat="47.29246" lon="4.97547">
        <ele>432</ele>
        <time>2012-10-13T07:04:03Z</time>
      </trkpt>
      <trkpt lat="47.29245" lon="4.97555">
        <ele>432</ele>
        <time>2012-10-13T07:04:06Z</time>
      </trkpt>
      <trkpt lat="47.29244" lon="4.97562">
        <ele>432</ele>
        <time>2012-10-13T07:04:09Z</time>
      </trkpt>
      <trkpt lat="47.29244" lon="4.97569">
        <ele>432</ele>
        <time>2012-10-13T07:04:12Z</time>
      </trkpt>
      <trkpt lat="47.29245" lon="4.97576">
        <ele>432</ele>
        <time>2012-10-13T07:04:15Z</time>
      </trkpt>
      <trkpt lat="47.29245" lon="4.97584">
        <ele>432</ele>
        <time>2012-10-13T07:04:19Z</time>
      </trkpt>
      <trkpt lat="47.29245" lon="4.97592">
        <ele>431</ele>
        <time>2012-10-13T07:04:22Z</time>
      </trkpt>
      <trkpt lat="47.29247" lon="4.97598">
        <ele>432</ele>
        <time>2012-10-13T07:04:25Z</time>
      </trkpt>
      <trkpt lat="47.2925" lon="4.97605">
        <ele>433</ele>
        <time>2012-10-13T07:04:28Z</time>
      </trkpt>
      <trkpt lat="47.2925" lon="4.97612">
        <ele>431</ele>
        <time>2012-10-13T07:04:31Z</time>
      </trkpt>
      <trkpt lat="47.29252" lon="4.97618">
        <ele>431</ele>
        <time>2012-10-13T07:04:34Z</time>
      </trkpt>
      <trkpt lat="47.29253" lon="4.97625">
        <ele>432</ele>
        <time>2012-10-13T07:04:37Z</time>
      </trkpt>
      <trkpt lat="47.29255" lon="4.97631">
        <ele>430</ele>
        <time>2012-10-13T07:04:39Z</time>
      </trkpt>
      <trkpt lat="47.29257" lon="4.97639">
        <ele>429</ele>
        <time>2012-10-13T07:04:42Z</time>
      </trkpt>
      <trkpt lat="47.29258" lon="4.97647">
        <ele>428</ele>
        <time>2012-10-13T07:04:45Z</time>
      </trkpt>
      <trkpt lat="47.29261" lon="4.97654">
        <ele>428</ele>
        <time>2012-10-13T07:04:48Z</time>
      </trkpt>
      <trkpt lat="47.29263" lon="4.9766">
        <ele>427</ele>
        <time>2012-10-13T07:04:51Z</time>
      </trkpt>
      <trkpt lat="47.29267" lon="4.97667">
        <ele>426</ele>
        <time>2012-10-13T07:04:55Z</time>
      </trkpt>
      <trkpt lat="47.29269" lon="4.97673">
        <ele>424</ele>
        <time>2012-10-13T07:04:58Z</time>
      </trkpt>
      <trkpt lat="47.29273" lon="4.97677">
        <ele>423</ele>
        <time>2012-10-13T07:05:01Z</time>
      </trkpt>
      <trkpt lat="47.29276" lon="4.97685">
        <ele>422</ele>
        <time>2012-10-13T07:05:05Z</time>
      </trkpt>
      <trkpt lat="47.29277" lon="4.97692">
        <ele>422</ele>
        <time>2012-10-13T07:05:08Z</time>
      </trkpt>
      <trkpt lat="47.2928" lon="4.97697">
        <ele>421</ele>
        <time>2012-10-13T07:05:11Z</time>
      </trkpt>
      <trkpt lat="47.29284" lon="4.97702">
        <ele>420</ele>
        <time>2012-10-13T07:05:14Z</time>
      </trkpt>
      <trkpt lat="47.29288" lon="4.97707">
        <ele>420</ele>
        <time>2012-10-13T07:05:17Z</time>
      </trkpt>
      <trkpt lat="47.2929" lon="4.97713">
        <ele>420</ele>
        <time>2012-10-13T07:05:20Z</time>
      </trkpt>
      <trkpt lat="47.29294" lon="4.9772">
        <ele>421</ele>
        <time>2012-10-13T07:05:23Z</time>
      </trkpt>
      <trkpt lat="47.29298" lon="4.97725">
        <ele>421</ele>
        <time>2012-10-13T07:05:26Z</time>
      </trkpt>
      <trkpt lat="47.29304" lon="4.9773">
        <ele>422</ele>
        <time>2012-10-13T07:05:29Z</time>
      </trkpt>
      <trkpt lat="47.29308" lon="4.97734">
        <ele>424</ele>
        <time>2012-10-13T07:05:32Z</time>
      </trkpt>
      <trkpt lat="47.2931" lon="4.97741">
        <ele>424</ele>
        <time>2012-10-13T07:05:36Z</time>
      </trkpt>
      <trkpt lat="47.29312" lon="4.97748">
        <ele>424</ele>
        <time>2012-10-13T07:05:39Z</time>
      </trkpt>
      <trkpt lat="47.29316" lon="4.97755">
        <ele>425</ele>
        <time>2012-10-13T07:05:42Z</time>
      </trkpt>
      <trkpt lat="47.29319" lon="4.9776">
        <ele>424</ele>
        <time>2012-10-13T07:05:44Z</time>
      </trkpt>
      <trkpt lat="47.29322" lon="4.97764">
        <ele>425</ele>
        <time>2012-10-13T07:05:47Z</time>
      </trkpt>
      <trkpt lat="47.29327" lon="4.97766">
        <ele>424</ele>
        <time>2012-10-13T07:05:51Z</time>
      </trkpt>
      <trkpt lat="47.29332" lon="4.9777">
        <ele>426</ele>
        <time>2012-10-13T07:05:55Z</time>
      </trkpt>
      <trkpt lat="47.29336" lon="4.97772">
        <ele>428</ele>
        <time>2012-10-13T07:05:58Z</time>
      </trkpt>
      <trkpt lat="47.2934" lon="4.97776">
        <ele>428</ele>
        <time>2012-10-13T07:06:02Z</time>
      </trkpt>
      <trkpt lat="47.29344" lon="4.97779">
        <ele>430</ele>
        <time>2012-10-13T07:06:06Z</time>
      </trkpt>
      <trkpt lat="47.2935" lon="4.97779">
        <ele>430</ele>
        <time>2012-10-13T07:06:10Z</time>
      </trkpt>
      <trkpt lat="47.29354" lon="4.97783">
        <ele>430</ele>
        <time>2012-10-13T07:06:21Z</time>
      </trkpt>
      <trkpt lat="47.29354" lon="4.97783">
        <ele>430</ele>
        <time>2012-10-13T07:06:21Z</time>
      </trkpt>
      <trkpt lat="47.29354" lon="4.97783">
        <ele>429</ele>
        <time>2012-10-13T07:06:53Z</time>
      </trkpt>
      <trkpt lat="47.29353" lon="4.97792">
        <ele>430</ele>
        <time>2012-10-13T07:07:00Z</time>
      </trkpt>
      <trkpt lat="47.29351" lon="4.978">
        <ele>432</ele>
        <time>2012-10-13T07:07:04Z</time>
      </trkpt>
      <trkpt lat="47.2935" lon="4.97806">
        <ele>432</ele>
        <time>2012-10-13T07:07:08Z</time>
      </trkpt>
      <trkpt lat="47.29346" lon="4.9781">
        <ele>431</ele>
        <time>2012-10-13T07:07:11Z</time>
      </trkpt>
      <trkpt lat="47.29342" lon="4.97816">
        <ele>431</ele>
        <time>2012-10-13T07:07:15Z</time>
      </trkpt>
      <trkpt lat="47.29337" lon="4.97818">
        <ele>430</ele>
        <time>2012-10-13T07:07:19Z</time>
      </trkpt>
      <trkpt lat="47.29332" lon="4.9782">
        <ele>429</ele>
        <time>2012-10-13T07:07:23Z</time>
      </trkpt>
      <trkpt lat="47.29327" lon="4.97825">
        <ele>429</ele>
        <time>2012-10-13T07:07:28Z</time>
      </trkpt>
      <trkpt lat="47.29323" lon="4.97831">
        <ele>430</ele>
        <time>2012-10-13T07:07:32Z</time>
      </trkpt>
      <trkpt lat="47.29319" lon="4.97836">
        <ele>430</ele>
        <time>2012-10-13T07:07:35Z</time>
      </trkpt>
      <trkpt lat="47.29318" lon="4.97842">
        <ele>429</ele>
        <time>2012-10-13T07:07:39Z</time>
      </trkpt>
      <trkpt lat="47.29316" lon="4.9785">
        <ele>430</ele>
        <time>2012-10-13T07:07:43Z</time>
      </trkpt>
      <trkpt lat="47.29313" lon="4.97856">
        <ele>432</ele>
        <time>2012-10-13T07:07:47Z</time>
      </trkpt>
      <trkpt lat="47.29308" lon="4.97859">
        <ele>433</ele>
        <time>2012-10-13T07:07:51Z</time>
      </trkpt>
      <trkpt lat="47.29302" lon="4.9786">
        <ele>433</ele>
        <time>2012-10-13T07:07:55Z</time>
      </trkpt>
      <trkpt lat="47.29298" lon="4.97862">
        <ele>434</ele>
        <time>2012-10-13T07:07:59Z</time>
      </trkpt>
      <trkpt lat="47.29292" lon="4.97864">
        <ele>434</ele>
        <time>2012-10-13T07:08:03Z</time>
      </trkpt>
      <trkpt lat="47.29286" lon="4.97867">
        <ele>434</ele>
        <time>2012-10-13T07:08:08Z</time>
      </trkpt>
      <trkpt lat="47.29282" lon="4.9787">
        <ele>434</ele>
        <time>2012-10-13T07:08:12Z</time>
      </trkpt>
      <trkpt lat="47.29277" lon="4.97874">
        <ele>434</ele>
        <time>2012-10-13T07:08:15Z</time>
      </trkpt>
      <trkpt lat="47.29272" lon="4.97877">
        <ele>434</ele>
        <time>2012-10-13T07:08:19Z</time>
      </trkpt>
      <trkpt lat="47.29268" lon="4.9788">
        <ele>434</ele>
        <time>2012-10-13T07:08:22Z</time>
      </trkpt>
      <trkpt lat="47.29263" lon="4.97884">
        <ele>435</ele>
        <time>2012-10-13T07:08:25Z</time>
      </trkpt>
      <trkpt lat="47.29258" lon="4.97888">
        <ele>435</ele>
        <time>2012-10-13T07:08:28Z</time>
      </trkpt>
      <trkpt lat="47.29255" lon="4.97893">
        <ele>434</ele>
        <time>2012-10-13T07:08:32Z</time>
      </trkpt>
      <trkpt lat="47.29251" lon="4.97898">
        <ele>434</ele>
        <time>2012-10-13T07:08:35Z</time>
      </trkpt>
      <trkpt lat="47.29247" lon="4.97905">
        <ele>432</ele>
        <time>2012-10-13T07:08:39Z</time>
      </trkpt>
      <trkpt lat="47.29244" lon="4.97912">
        <ele>431</ele>
        <time>2012-10-13T07:08:42Z</time>
      </trkpt>
      <trkpt lat="47.29241" lon="4.97918">
        <ele>430</ele>
        <time>2012-10-13T07:08:45Z</time>
      </trkpt>
      <trkpt lat="47.29241" lon="4.97925">
        <ele>431</ele>
        <time>2012-10-13T07:08:49Z</time>
      </trkpt>
      <trkpt lat="47.29242" lon="4.97932">
        <ele>431</ele>
        <time>2012-10-13T07:08:54Z</time>
      </trkpt>
      <trkpt lat="47.29245" lon="4.97939">
        <ele>433</ele>
        <time>2012-10-13T07:08:57Z</time>
      </trkpt>
      <trkpt lat="47.29247" lon="4.97946">
        <ele>432</ele>
        <time>2012-10-13T07:09:01Z</time>
      </trkpt>
      <trkpt lat="47.2925" lon="4.97953">
        <ele>434</ele>
        <time>2012-10-13T07:09:05Z</time>
      </trkpt>
      <trkpt lat="47.29253" lon="4.97959">
        <ele>435</ele>
        <time>2012-10-13T07:09:09Z</time>
      </trkpt>
      <trkpt lat="47.29256" lon="4.97965">
        <ele>435</ele>
        <time>2012-10-13T07:09:11Z</time>
      </trkpt>
      <trkpt lat="47.29258" lon="4.97971">
        <ele>434</ele>
        <time>2012-10-13T07:09:13Z</time>
      </trkpt>
      <trkpt lat="47.29261" lon="4.97977">
        <ele>434</ele>
        <time>2012-10-13T07:09:16Z</time>
      </trkpt>
      <trkpt lat="47.29264" lon="4.97983">
        <ele>434</ele>
        <time>2012-10-13T07:09:19Z</time>
      </trkpt>
      <trkpt lat="47.29267" lon="4.97989">
        <ele>433</ele>
        <time>2012-10-13T07:09:21Z</time>
      </trkpt>
      <trkpt lat="47.29269" lon="4.97996">
        <ele>434</ele>
        <time>2012-10-13T07:09:23Z</time>
      </trkpt>
      <trkpt lat="47.29272" lon="4.98003">
        <ele>432</ele>
        <time>2012-10-13T07:09:26Z</time>
      </trkpt>
      <trkpt lat="47.29276" lon="4.9801">
        <ele>432</ele>
        <time>2012-10-13T07:09:29Z</time>
      </trkpt>
      <trkpt lat="47.29278" lon="4.98015">
        <ele>432</ele>
        <time>2012-10-13T07:09:32Z</time>
      </trkpt>
      <trkpt lat="47.29282" lon="4.9802">
        <ele>431</ele>
        <time>2012-10-13T07:09:35Z</time>
      </trkpt>
      <trkpt lat="47.29285" lon="4.98026">
        <ele>430</ele>
        <time>2012-10-13T07:09:38Z</time>
      </trkpt>
      <trkpt lat="47.29288" lon="4.98032">
        <ele>430</ele>
        <time>2012-10-13T07:09:41Z</time>
      </trkpt>
      <trkpt lat="47.2929" lon="4.9804">
        <ele>431</ele>
        <time>2012-10-13T07:09:44Z</time>
      </trkpt>
      <trkpt lat="47.29292" lon="4.98047">
        <ele>430</ele>
        <time>2012-10-13T07:09:47Z</time>
      </trkpt>
      <trkpt lat="47.29294" lon="4.98055">
        <ele>430</ele>
        <time>2012-10-13T07:09:50Z</time>
      </trkpt>
      <trkpt lat="47.29296" lon="4.98062">
        <ele>428</ele>
        <time>2012-10-13T07:09:53Z</time>
      </trkpt>
      <trkpt lat="47.29298" lon="4.98068">
        <ele>428</ele>
        <time>2012-10-13T07:09:57Z</time>
      </trkpt>
      <trkpt lat="47.293" lon="4.98075">
        <ele>426</ele>
        <time>2012-10-13T07:10:02Z</time>
      </trkpt>
      <trkpt lat="47.29298" lon="4.98087">
        <ele>438</ele>
        <time>2012-10-13T07:11:25Z</time>
      </trkpt>
      <trkpt lat="47.29298" lon="4.98087">
        <ele>438</ele>
        <time>2012-10-13T07:11:25Z</time>
      </trkpt>
      <trkpt lat="47.29298" lon="4.98087">
        <ele>439</ele>
        <time>2012-10-13T07:11:26Z</time>
      </trkpt>
      <trkpt lat="47.29297" lon="4.98094">
        <ele>435</ele>
        <time>2012-10-13T07:11:44Z</time>
      </trkpt>
      <trkpt lat="47.29293" lon="4.98101">
        <ele>433</ele>
        <time>2012-10-13T07:11:48Z</time>
      </trkpt>
      <trkpt lat="47.2929" lon="4.98106">
        <ele>431</ele>
        <time>2012-10-13T07:11:50Z</time>
      </trkpt>
      <trkpt lat="47.29285" lon="4.98109">
        <ele>428</ele>
        <time>2012-10-13T07:11:53Z</time>
      </trkpt>
      <trkpt lat="47.29282" lon="4.98115">
        <ele>427</ele>
        <time>2012-10-13T07:11:56Z</time>
      </trkpt>
      <trkpt lat="47.2928" lon="4.98123">
        <ele>426</ele>
        <time>2012-10-13T07:11:59Z</time>
      </trkpt>
      <trkpt lat="47.29277" lon="4.98128">
        <ele>424</ele>
        <time>2012-10-13T07:12:01Z</time>
      </trkpt>
      <trkpt lat="47.29273" lon="4.98135">
        <ele>423</ele>
        <time>2012-10-13T07:12:03Z</time>
      </trkpt>
      <trkpt lat="47.29269" lon="4.98139">
        <ele>424</ele>
        <time>2012-10-13T07:12:06Z</time>
      </trkpt>
      <trkpt lat="47.29266" lon="4.98144">
        <ele>423</ele>
        <time>2012-10-13T07:12:09Z</time>
      </trkpt>
      <trkpt lat="47.29262" lon="4.98148">
        <ele>423</ele>
        <time>2012-10-13T07:12:12Z</time>
      </trkpt>
      <trkpt lat="47.29258" lon="4.98154">
        <ele>423</ele>
        <time>2012-10-13T07:12:16Z</time>
      </trkpt>
      <trkpt lat="47.29254" lon="4.9816">
        <ele>423</ele>
        <time>2012-10-13T07:12:19Z</time>
      </trkpt>
      <trkpt lat="47.2925" lon="4.98166">
        <ele>425</ele>
        <time>2012-10-13T07:12:23Z</time>
      </trkpt>
      <trkpt lat="47.29247" lon="4.9817">
        <ele>424</ele>
        <time>2012-10-13T07:12:27Z</time>
      </trkpt>
      <trkpt lat="47.29243" lon="4.98175">
        <ele>426</ele>
        <time>2012-10-13T07:12:31Z</time>
      </trkpt>
      <trkpt lat="47.29239" lon="4.98179">
        <ele>426</ele>
        <time>2012-10-13T07:12:35Z</time>
      </trkpt>
      <trkpt lat="47.29234" lon="4.98184">
        <ele>426</ele>
        <time>2012-10-13T07:12:39Z</time>
      </trkpt>
      <trkpt lat="47.2923" lon="4.98188">
        <ele>425</ele>
        <time>2012-10-13T07:12:43Z</time>
      </trkpt>
      <trkpt lat="47.29226" lon="4.98192">
        <ele>424</ele>
        <time>2012-10-13T07:12:46Z</time>
      </trkpt>
      <trkpt lat="47.29223" lon="4.98197">
        <ele>424</ele>
        <time>2012-10-13T07:12:50Z</time>
      </trkpt>
      <trkpt lat="47.29221" lon="4.98203">
        <ele>424</ele>
        <time>2012-10-13T07:13:17Z</time>
      </trkpt>
      <trkpt lat="47.29216" lon="4.98202">
        <ele>423</ele>
        <time>2012-10-13T07:13:23Z</time>
      </trkpt>
      <trkpt lat="47.29211" lon="4.98197">
        <ele>424</ele>
        <time>2012-10-13T07:13:27Z</time>
      </trkpt>
      <trkpt lat="47.29205" lon="4.98195">
        <ele>424</ele>
        <time>2012-10-13T07:13:32Z</time>
      </trkpt>
      <trkpt lat="47.292" lon="4.98195">
        <ele>424</ele>
        <time>2012-10-13T07:13:35Z</time>
      </trkpt>
      <trkpt lat="47.29194" lon="4.98194">
        <ele>426</ele>
        <time>2012-10-13T07:13:38Z</time>
      </trkpt>
      <trkpt lat="47.29189" lon="4.98194">
        <ele>425</ele>
        <time>2012-10-13T07:13:41Z</time>
      </trkpt>
      <trkpt lat="47.29184" lon="4.98194">
        <ele>425</ele>
        <time>2012-10-13T07:13:44Z</time>
      </trkpt>
      <trkpt lat="47.2918" lon="4.98194">
        <ele>424</ele>
        <time>2012-10-13T07:13:47Z</time>
      </trkpt>
      <trkpt lat="47.29175" lon="4.98196">
        <ele>425</ele>
        <time>2012-10-13T07:13:50Z</time>
      </trkpt>
      <trkpt lat="47.29171" lon="4.98199">
        <ele>425</ele>
        <time>2012-10-13T07:13:53Z</time>
      </trkpt>
      <trkpt lat="47.29166" lon="4.98201">
        <ele>425</ele>
        <time>2012-10-13T07:13:56Z</time>
      </trkpt>
      <trkpt lat="47.29162" lon="4.98202">
        <ele>425</ele>
        <time>2012-10-13T07:13:59Z</time>
      </trkpt>
      <trkpt lat="47.29157" lon="4.98204">
        <ele>425</ele>
        <time>2012-10-13T07:14:02Z</time>
      </trkpt>
      <trkpt lat="47.29153" lon="4.98206">
        <ele>426</ele>
        <time>2012-10-13T07:14:05Z</time>
      </trkpt>
      <trkpt lat="47.29148" lon="4.98209">
        <ele>426</ele>
        <time>2012-10-13T07:14:08Z</time>
      </trkpt>
      <trkpt lat="47.29143" lon="4.98211">
        <ele>427</ele>
        <time>2012-10-13T07:14:11Z</time>
      </trkpt>
      <trkpt lat="47.29139" lon="4.98215">
        <ele>427</ele>
        <time>2012-10-13T07:14:15Z</time>
      </trkpt>
      <trkpt lat="47.29134" lon="4.98215">
        <ele>426</ele>
        <time>2012-10-13T07:14:18Z</time>
      </trkpt>
      <trkpt lat="47.29128" lon="4.98215">
        <ele>426</ele>
        <time>2012-10-13T07:14:25Z</time>
      </trkpt>
      <trkpt lat="47.29122" lon="4.98212">
        <ele>427</ele>
        <time>2012-10-13T07:14:29Z</time>
      </trkpt>
      <trkpt lat="47.29116" lon="4.9821">
        <ele>427</ele>
        <time>2012-10-13T07:14:32Z</time>
      </trkpt>
      <trkpt lat="47.29111" lon="4.98207">
        <ele>426</ele>
        <time>2012-10-13T07:14:35Z</time>
      </trkpt>
      <trkpt lat="47.29106" lon="4.98207">
        <ele>426</ele>
        <time>2012-10-13T07:14:39Z</time>
      </trkpt>
      <trkpt lat="47.29101" lon="4.98204">
        <ele>427</ele>
        <time>2012-10-13T07:14:43Z</time>
      </trkpt>
      <trkpt lat="47.29096" lon="4.98202">
        <ele>427</ele>
        <time>2012-10-13T07:14:47Z</time>
      </trkpt>
      <trkpt lat="47.29092" lon="4.98199">
        <ele>427</ele>
        <time>2012-10-13T07:14:50Z</time>
      </trkpt>
      <trkpt lat="47.29087" lon="4.98196">
        <ele>427</ele>
        <time>2012-10-13T07:14:53Z</time>
      </trkpt>
      <trkpt lat="47.29082" lon="4.98194">
        <ele>428</ele>
        <time>2012-10-13T07:14:57Z</time>
      </trkpt>
      <trkpt lat="47.29076" lon="4.98191">
        <ele>429</ele>
        <time>2012-10-13T07:15:01Z</time>
      </trkpt>
      <trkpt lat="47.29071" lon="4.98189">
        <ele>429</ele>
        <time>2012-10-13T07:15:03Z</time>
      </trkpt>
      <trkpt lat="47.29065" lon="4.98184">
        <ele>428</ele>
        <time>2012-10-13T07:15:07Z</time>
      </trkpt>
      <trkpt lat="47.29058" lon="4.98181">
        <ele>428</ele>
        <time>2012-10-13T07:15:10Z</time>
      </trkpt>
      <trkpt lat="47.29053" lon="4.98176">
        <ele>429</ele>
        <time>2012-10-13T07:15:13Z</time>
      </trkpt>
      <trkpt lat="47.29047" lon="4.9817">
        <ele>429</ele>
        <time>2012-10-13T07:15:16Z</time>
      </trkpt>
      <trkpt lat="47.29041" lon="4.98167">
        <ele>428</ele>
        <time>2012-10-13T07:15:18Z</time>
      </trkpt>
      <trkpt lat="47.29036" lon="4.98164">
        <ele>429</ele>
        <time>2012-10-13T07:15:20Z</time>
      </trkpt>
      <trkpt lat="47.29033" lon="4.98159">
        <ele>429</ele>
        <time>2012-10-13T07:15:23Z</time>
      </trkpt>
      <trkpt lat="47.29028" lon="4.98153">
        <ele>431</ele>
        <time>2012-10-13T07:15:26Z</time>
      </trkpt>
      <trkpt lat="47.29024" lon="4.9815">
        <ele>431</ele>
        <time>2012-10-13T07:15:28Z</time>
      </trkpt>
      <trkpt lat="47.29018" lon="4.98145">
        <ele>431</ele>
        <time>2012-10-13T07:15:31Z</time>
      </trkpt>
      <trkpt lat="47.29012" lon="4.98142">
        <ele>430</ele>
        <time>2012-10-13T07:15:34Z</time>
      </trkpt>
      <trkpt lat="47.29006" lon="4.98139">
        <ele>429</ele>
        <time>2012-10-13T07:15:36Z</time>
      </trkpt>
      <trkpt lat="47.29" lon="4.98138">
        <ele>430</ele>
        <time>2012-10-13T07:15:38Z</time>
      </trkpt>
      <trkpt lat="47.28992" lon="4.98137">
        <ele>428</ele>
        <time>2012-10-13T07:15:40Z</time>
      </trkpt>
      <trkpt lat="47.28987" lon="4.98137">
        <ele>429</ele>
        <time>2012-10-13T07:15:43Z</time>
      </trkpt>
      <trkpt lat="47.28982" lon="4.98139">
        <ele>430</ele>
        <time>2012-10-13T07:15:46Z</time>
      </trkpt>
      <trkpt lat="47.28978" lon="4.9814">
        <ele>429</ele>
        <time>2012-10-13T07:15:50Z</time>
      </trkpt>
      <trkpt lat="47.28973" lon="4.98139">
        <ele>428</ele>
        <time>2012-10-13T07:15:53Z</time>
      </trkpt>
      <trkpt lat="47.28967" lon="4.98138">
        <ele>428</ele>
        <time>2012-10-13T07:15:56Z</time>
      </trkpt>
      <trkpt lat="47.28961" lon="4.98138">
        <ele>428</ele>
        <time>2012-10-13T07:15:58Z</time>
      </trkpt>
      <trkpt lat="47.28955" lon="4.98138">
        <ele>427</ele>
        <time>2012-10-13T07:16:01Z</time>
      </trkpt>
      <trkpt lat="47.2895" lon="4.98138">
        <ele>428</ele>
        <time>2012-10-13T07:16:03Z</time>
      </trkpt>
      <trkpt lat="47.28945" lon="4.98139">
        <ele>428</ele>
        <time>2012-10-13T07:16:05Z</time>
      </trkpt>
      <trkpt lat="47.28939" lon="4.98142">
        <ele>428</ele>
        <time>2012-10-13T07:16:08Z</time>
      </trkpt>
      <trkpt lat="47.28932" lon="4.98145">
        <ele>427</ele>
        <time>2012-10-13T07:16:11Z</time>
      </trkpt>
      <trkpt lat="47.28928" lon="4.98152">
        <ele>426</ele>
        <time>2012-10-13T07:16:14Z</time>
      </trkpt>
      <trkpt lat="47.28923" lon="4.98159">
        <ele>427</ele>
        <time>2012-10-13T07:16:17Z</time>
      </trkpt>
      <trkpt lat="47.2892" lon="4.98163">
        <ele>427</ele>
        <time>2012-10-13T07:16:19Z</time>
      </trkpt>
      <trkpt lat="47.28915" lon="4.9817">
        <ele>427</ele>
        <time>2012-10-13T07:16:22Z</time>
      </trkpt>
      <trkpt lat="47.28912" lon="4.98177">
        <ele>427</ele>
        <time>2012-10-13T07:16:25Z</time>
      </trkpt>
      <trkpt lat="47.28909" lon="4.98183">
        <ele>427</ele>
        <time>2012-10-13T07:16:28Z</time>
      </trkpt>
      <trkpt lat="47.28907" lon="4.98189">
        <ele>425</ele>
        <time>2012-10-13T07:16:30Z</time>
      </trkpt>
      <trkpt lat="47.28904" lon="4.98197">
        <ele>425</ele>
        <time>2012-10-13T07:16:33Z</time>
      </trkpt>
      <trkpt lat="47.28903" lon="4.98205">
        <ele>426</ele>
        <time>2012-10-13T07:16:36Z</time>
      </trkpt>
      <trkpt lat="47.28901" lon="4.98212">
        <ele>425</ele>
        <time>2012-10-13T07:16:38Z</time>
      </trkpt>
      <trkpt lat="47.289" lon="4.98218">
        <ele>423</ele>
        <time>2012-10-13T07:16:40Z</time>
      </trkpt>
      <trkpt lat="47.289" lon="4.98227">
        <ele>423</ele>
        <time>2012-10-13T07:16:43Z</time>
      </trkpt>
      <trkpt lat="47.28899" lon="4.98233">
        <ele>423</ele>
        <time>2012-10-13T07:16:45Z</time>
      </trkpt>
      <trkpt lat="47.28898" lon="4.98243">
        <ele>424</ele>
        <time>2012-10-13T07:16:48Z</time>
      </trkpt>
      <trkpt lat="47.28898" lon="4.98252">
        <ele>424</ele>
        <time>2012-10-13T07:16:51Z</time>
      </trkpt>
      <trkpt lat="47.28896" lon="4.98261">
        <ele>425</ele>
        <time>2012-10-13T07:16:54Z</time>
      </trkpt>
      <trkpt lat="47.28895" lon="4.98268">
        <ele>424</ele>
        <time>2012-10-13T07:16:56Z</time>
      </trkpt>
      <trkpt lat="47.28894" lon="4.98276">
        <ele>424</ele>
        <time>2012-10-13T07:16:59Z</time>
      </trkpt>
      <trkpt lat="47.28893" lon="4.98284">
        <ele>424</ele>
        <time>2012-10-13T07:17:02Z</time>
      </trkpt>
      <trkpt lat="47.28892" lon="4.98293">
        <ele>422</ele>
        <time>2012-10-13T07:17:05Z</time>
      </trkpt>
      <trkpt lat="47.28892" lon="4.98301">
        <ele>421</ele>
        <time>2012-10-13T07:17:08Z</time>
      </trkpt>
      <trkpt lat="47.28893" lon="4.98309">
        <ele>421</ele>
        <time>2012-10-13T07:17:12Z</time>
      </trkpt>
      <trkpt lat="47.28894" lon="4.98319">
        <ele>422</ele>
        <time>2012-10-13T07:17:15Z</time>
      </trkpt>
      <trkpt lat="47.28895" lon="4.98326">
        <ele>422</ele>
        <time>2012-10-13T07:17:18Z</time>
      </trkpt>
      <trkpt lat="47.28897" lon="4.98334">
        <ele>422</ele>
        <time>2012-10-13T07:17:21Z</time>
      </trkpt>
      <trkpt lat="47.28899" lon="4.98342">
        <ele>423</ele>
        <time>2012-10-13T07:17:24Z</time>
      </trkpt>
      <trkpt lat="47.289" lon="4.9835">
        <ele>424</ele>
        <time>2012-10-13T07:17:26Z</time>
      </trkpt>
      <trkpt lat="47.28903" lon="4.98358">
        <ele>424</ele>
        <time>2012-10-13T07:17:29Z</time>
      </trkpt>
      <trkpt lat="47.28904" lon="4.98365">
        <ele>424</ele>
        <time>2012-10-13T07:17:32Z</time>
      </trkpt>
      <trkpt lat="47.28908" lon="4.9837">
        <ele>424</ele>
        <time>2012-10-13T07:17:35Z</time>
      </trkpt>
      <trkpt lat="47.2891" lon="4.9838">
        <ele>426</ele>
        <time>2012-10-13T07:17:38Z</time>
      </trkpt>
      <trkpt lat="47.28912" lon="4.98389">
        <ele>427</ele>
        <time>2012-10-13T07:17:41Z</time>
      </trkpt>
      <trkpt lat="47.28914" lon="4.98395">
        <ele>428</ele>
        <time>2012-10-13T07:17:43Z</time>
      </trkpt>
      <trkpt lat="47.28915" lon="4.98402">
        <ele>427</ele>
        <time>2012-10-13T07:17:45Z</time>
      </trkpt>
      <trkpt lat="47.28916" lon="4.98409">
        <ele>427</ele>
        <time>2012-10-13T07:17:47Z</time>
      </trkpt>
      <trkpt lat="47.28917" lon="4.98415">
        <ele>426</ele>
        <time>2012-10-13T07:17:49Z</time>
      </trkpt>
      <trkpt lat="47.28918" lon="4.98421">
        <ele>426</ele>
        <time>2012-10-13T07:17:51Z</time>
      </trkpt>
      <trkpt lat="47.28919" lon="4.98428">
        <ele>426</ele>
        <time>2012-10-13T07:17:53Z</time>
      </trkpt>
      <trkpt lat="47.2892" lon="4.98437">
        <ele>426</ele>
        <time>2012-10-13T07:17:56Z</time>
      </trkpt>
      <trkpt lat="47.28922" lon="4.98446">
        <ele>427</ele>
        <time>2012-10-13T07:17:59Z</time>
      </trkpt>
      <trkpt lat="47.28921" lon="4.98455">
        <ele>426</ele>
        <time>2012-10-13T07:18:02Z</time>
      </trkpt>
      <trkpt lat="47.28921" lon="4.98463">
        <ele>427</ele>
        <time>2012-10-13T07:18:05Z</time>
      </trkpt>
      <trkpt lat="47.28922" lon="4.98469">
        <ele>428</ele>
        <time>2012-10-13T07:18:09Z</time>
      </trkpt>
      <trkpt lat="47.28921" lon="4.98476">
        <ele>427</ele>
        <time>2012-10-13T07:18:13Z</time>
      </trkpt>
      <trkpt lat="47.28922" lon="4.98483">
        <ele>426</ele>
        <time>2012-10-13T07:18:19Z</time>
      </trkpt>
      <trkpt lat="47.28923" lon="4.9849">
        <ele>427</ele>
        <time>2012-10-13T07:18:24Z</time>
      </trkpt>
      <trkpt lat="47.28922" lon="4.98498">
        <ele>427</ele>
        <time>2012-10-13T07:18:29Z</time>
      </trkpt>
      <trkpt lat="47.28923" lon="4.98505">
        <ele>426</ele>
        <time>2012-10-13T07:18:44Z</time>
      </trkpt>
      <trkpt lat="47.28922" lon="4.98498">
        <ele>425</ele>
        <time>2012-10-13T07:18:58Z</time>
      </trkpt>
      <trkpt lat="47.28921" lon="4.9849">
        <ele>425</ele>
        <time>2012-10-13T07:19:01Z</time>
      </trkpt>
      <trkpt lat="47.28921" lon="4.98483">
        <ele>425</ele>
        <time>2012-10-13T07:19:04Z</time>
      </trkpt>
      <trkpt lat="47.28921" lon="4.98476">
        <ele>426</ele>
        <time>2012-10-13T07:19:07Z</time>
      </trkpt>
      <trkpt lat="47.28919" lon="4.98468">
        <ele>425</ele>
        <time>2012-10-13T07:19:11Z</time>
      </trkpt>
      <trkpt lat="47.28913" lon="4.98471">
        <ele>425</ele>
        <time>2012-10-13T07:19:15Z</time>
      </trkpt>
      <trkpt lat="47.28909" lon="4.98476">
        <ele>424</ele>
        <time>2012-10-13T07:19:18Z</time>
      </trkpt>
      <trkpt lat="47.28903" lon="4.98478">
        <ele>422</ele>
        <time>2012-10-13T07:19:21Z</time>
      </trkpt>
      <trkpt lat="47.28899" lon="4.98482">
        <ele>420</ele>
        <time>2012-10-13T07:19:24Z</time>
      </trkpt>
      <trkpt lat="47.28894" lon="4.98485">
        <ele>421</ele>
        <time>2012-10-13T07:19:27Z</time>
      </trkpt>
      <trkpt lat="47.2889" lon="4.98488">
        <ele>420</ele>
        <time>2012-10-13T07:19:30Z</time>
      </trkpt>
      <trkpt lat="47.28885" lon="4.98492">
        <ele>420</ele>
        <time>2012-10-13T07:19:33Z</time>
      </trkpt>
      <trkpt lat="47.2888" lon="4.98494">
        <ele>419</ele>
        <time>2012-10-13T07:19:36Z</time>
      </trkpt>
      <trkpt lat="47.28875" lon="4.98498">
        <ele>419</ele>
        <time>2012-10-13T07:19:39Z</time>
      </trkpt>
      <trkpt lat="47.28869" lon="4.98501">
        <ele>418</ele>
        <time>2012-10-13T07:19:42Z</time>
      </trkpt>
      <trkpt lat="47.28864" lon="4.98504">
        <ele>418</ele>
        <time>2012-10-13T07:19:45Z</time>
      </trkpt>
      <trkpt lat="47.28859" lon="4.98507">
        <ele>417</ele>
        <time>2012-10-13T07:19:48Z</time>
      </trkpt>
      <trkpt lat="47.28854" lon="4.9851">
        <ele>416</ele>
        <time>2012-10-13T07:19:51Z</time>
      </trkpt>
      <trkpt lat="47.28849" lon="4.98512">
        <ele>417</ele>
        <time>2012-10-13T07:19:55Z</time>
      </trkpt>
      <trkpt lat="47.28844" lon="4.98509">
        <ele>416</ele>
        <time>2012-10-13T07:19:58Z</time>
      </trkpt>
      <trkpt lat="47.28838" lon="4.98508">
        <ele>417</ele>
        <time>2012-10-13T07:20:01Z</time>
      </trkpt>
      <trkpt lat="47.28833" lon="4.98509">
        <ele>418</ele>
        <time>2012-10-13T07:20:04Z</time>
      </trkpt>
      <trkpt lat="47.28827" lon="4.98508">
        <ele>417</ele>
        <time>2012-10-13T07:20:07Z</time>
      </trkpt>
      <trkpt lat="47.28822" lon="4.98509">
        <ele>418</ele>
        <time>2012-10-13T07:20:10Z</time>
      </trkpt>
      <trkpt lat="47.28816" lon="4.9851">
        <ele>418</ele>
        <time>2012-10-13T07:20:13Z</time>
      </trkpt>
      <trkpt lat="47.28811" lon="4.9851">
        <ele>417</ele>
        <time>2012-10-13T07:20:16Z</time>
      </trkpt>
      <trkpt lat="47.28805" lon="4.98509">
        <ele>417</ele>
        <time>2012-10-13T07:20:19Z</time>
      </trkpt>
      <trkpt lat="47.28799" lon="4.98509">
        <ele>417</ele>
        <time>2012-10-13T07:20:22Z</time>
      </trkpt>
      <trkpt lat="47.28793" lon="4.98508">
        <ele>417</ele>
        <time>2012-10-13T07:20:25Z</time>
      </trkpt>
      <trkpt lat="47.28788" lon="4.98507">
        <ele>417</ele>
        <time>2012-10-13T07:20:28Z</time>
      </trkpt>
      <trkpt lat="47.28782" lon="4.98507">
        <ele>416</ele>
        <time>2012-10-13T07:20:31Z</time>
      </trkpt>
      <trkpt lat="47.28777" lon="4.98505">
        <ele>415</ele>
        <time>2012-10-13T07:20:34Z</time>
      </trkpt>
      <trkpt lat="47.28772" lon="4.98504">
        <ele>414</ele>
        <time>2012-10-13T07:20:37Z</time>
      </trkpt>
      <trkpt lat="47.28766" lon="4.98502">
        <ele>413</ele>
        <time>2012-10-13T07:20:40Z</time>
      </trkpt>
      <trkpt lat="47.28761" lon="4.98502">
        <ele>413</ele>
        <time>2012-10-13T07:20:43Z</time>
      </trkpt>
      <trkpt lat="47.28754" lon="4.98502">
        <ele>413</ele>
        <time>2012-10-13T07:20:46Z</time>
      </trkpt>
      <trkpt lat="47.28749" lon="4.98501">
        <ele>413</ele>
        <time>2012-10-13T07:20:49Z</time>
      </trkpt>
      <trkpt lat="47.28744" lon="4.98499">
        <ele>411</ele>
        <time>2012-10-13T07:20:51Z</time>
      </trkpt>
      <trkpt lat="47.28738" lon="4.98498">
        <ele>410</ele>
        <time>2012-10-13T07:20:54Z</time>
      </trkpt>
      <trkpt lat="47.28733" lon="4.98496">
        <ele>410</ele>
        <time>2012-10-13T07:20:57Z</time>
      </trkpt>
      <trkpt lat="47.28728" lon="4.98493">
        <ele>410</ele>
        <time>2012-10-13T07:21:01Z</time>
      </trkpt>
      <trkpt lat="47.28724" lon="4.98487">
        <ele>411</ele>
        <time>2012-10-13T07:21:05Z</time>
      </trkpt>
      <trkpt lat="47.28719" lon="4.98485">
        <ele>410</ele>
        <time>2012-10-13T07:21:08Z</time>
      </trkpt>
      <trkpt lat="47.28712" lon="4.98484">
        <ele>408</ele>
        <time>2012-10-13T07:21:10Z</time>
      </trkpt>
      <trkpt lat="47.28708" lon="4.98482">
        <ele>406</ele>
        <time>2012-10-13T07:21:12Z</time>
      </trkpt>
      <trkpt lat="47.287" lon="4.98483">
        <ele>407</ele>
        <time>2012-10-13T07:21:15Z</time>
      </trkpt>
      <trkpt lat="47.28695" lon="4.98483">
        <ele>407</ele>
        <time>2012-10-13T07:21:17Z</time>
      </trkpt>
      <trkpt lat="47.2869" lon="4.98484">
        <ele>403</ele>
        <time>2012-10-13T07:21:20Z</time>
      </trkpt>
      <trkpt lat="47.28685" lon="4.98485">
        <ele>402</ele>
        <time>2012-10-13T07:21:25Z</time>
      </trkpt>
      <trkpt lat="47.28679" lon="4.98484">
        <ele>404</ele>
        <time>2012-10-13T07:21:29Z</time>
      </trkpt>
      <trkpt lat="47.28673" lon="4.98484">
        <ele>404</ele>
        <time>2012-10-13T07:21:32Z</time>
      </trkpt>
      <trkpt lat="47.28668" lon="4.98483">
        <ele>407</ele>
        <time>2012-10-13T07:21:34Z</time>
      </trkpt>
      <trkpt lat="47.28663" lon="4.98481">
        <ele>407</ele>
        <time>2012-10-13T07:21:36Z</time>
      </trkpt>
      <trkpt lat="47.28657" lon="4.98481">
        <ele>406</ele>
        <time>2012-10-13T07:21:40Z</time>
      </trkpt>
      <trkpt lat="47.28652" lon="4.98479">
        <ele>406</ele>
        <time>2012-10-13T07:21:43Z</time>
      </trkpt>
      <trkpt lat="47.28648" lon="4.98476">
        <ele>406</ele>
        <time>2012-10-13T07:21:45Z</time>
      </trkpt>
      <trkpt lat="47.28643" lon="4.98473">
        <ele>405</ele>
        <time>2012-10-13T07:21:47Z</time>
      </trkpt>
      <trkpt lat="47.28637" lon="4.98474">
        <ele>405</ele>
        <time>2012-10-13T07:21:50Z</time>
      </trkpt>
      <trkpt lat="47.28632" lon="4.98472">
        <ele>405</ele>
        <time>2012-10-13T07:21:53Z</time>
      </trkpt>
      <trkpt lat="47.28626" lon="4.9847">
        <ele>404</ele>
        <time>2012-10-13T07:21:55Z</time>
      </trkpt>
      <trkpt lat="47.2862" lon="4.98469">
        <ele>404</ele>
        <time>2012-10-13T07:21:58Z</time>
      </trkpt>
      <trkpt lat="47.28615" lon="4.98467">
        <ele>403</ele>
        <time>2012-10-13T07:22:00Z</time>
      </trkpt>
      <trkpt lat="47.28611" lon="4.98464">
        <ele>403</ele>
        <time>2012-10-13T07:22:02Z</time>
      </trkpt>
      <trkpt lat="47.28606" lon="4.98461">
        <ele>403</ele>
        <time>2012-10-13T07:22:05Z</time>
      </trkpt>
      <trkpt lat="47.28601" lon="4.98461">
        <ele>402</ele>
        <time>2012-10-13T07:22:08Z</time>
      </trkpt>
      <trkpt lat="47.28594" lon="4.98458">
        <ele>401</ele>
        <time>2012-10-13T07:22:11Z</time>
      </trkpt>
      <trkpt lat="47.28588" lon="4.98458">
        <ele>400</ele>
        <time>2012-10-13T07:22:15Z</time>
      </trkpt>
      <trkpt lat="47.28584" lon="4.98456">
        <ele>400</ele>
        <time>2012-10-13T07:22:17Z</time>
      </trkpt>
      <trkpt lat="47.28579" lon="4.98457">
        <ele>400</ele>
        <time>2012-10-13T07:22:20Z</time>
      </trkpt>
      <trkpt lat="47.28574" lon="4.98457">
        <ele>399</ele>
        <time>2012-10-13T07:22:23Z</time>
      </trkpt>
      <trkpt lat="47.28568" lon="4.98458">
        <ele>398</ele>
        <time>2012-10-13T07:22:26Z</time>
      </trkpt>
      <trkpt lat="47.28563" lon="4.98462">
        <ele>398</ele>
        <time>2012-10-13T07:22:29Z</time>
      </trkpt>
      <trkpt lat="47.28555" lon="4.98466">
        <ele>394</ele>
        <time>2012-10-13T07:22:32Z</time>
      </trkpt>
      <trkpt lat="47.28548" lon="4.98467">
        <ele>392</ele>
        <time>2012-10-13T07:22:35Z</time>
      </trkpt>
      <trkpt lat="47.28543" lon="4.98463">
        <ele>391</ele>
        <time>2012-10-13T07:22:38Z</time>
      </trkpt>
      <trkpt lat="47.28538" lon="4.98462">
        <ele>389</ele>
        <time>2012-10-13T07:22:41Z</time>
      </trkpt>
      <trkpt lat="47.28531" lon="4.98464">
        <ele>391</ele>
        <time>2012-10-13T07:22:43Z</time>
      </trkpt>
      <trkpt lat="47.28525" lon="4.98466">
        <ele>391</ele>
        <time>2012-10-13T07:22:45Z</time>
      </trkpt>
      <trkpt lat="47.28521" lon="4.98469">
        <ele>390</ele>
        <time>2012-10-13T07:22:48Z</time>
      </trkpt>
      <trkpt lat="47.28521" lon="4.98469">
        <ele>390</ele>
        <time>2012-10-13T07:22:48Z</time>
      </trkpt>
      <trkpt lat="47.28521" lon="4.98469">
        <ele>390</ele>
        <time>2012-10-13T07:22:50Z</time>
      </trkpt>
      <trkpt lat="47.28516" lon="4.98464">
        <ele>391</ele>
        <time>2012-10-13T07:22:54Z</time>
      </trkpt>
      <trkpt lat="47.28512" lon="4.98461">
        <ele>392</ele>
        <time>2012-10-13T07:22:56Z</time>
      </trkpt>
      <trkpt lat="47.28509" lon="4.98455">
        <ele>391</ele>
        <time>2012-10-13T07:23:03Z</time>
      </trkpt>
      <trkpt lat="47.28512" lon="4.98448">
        <ele>389</ele>
        <time>2012-10-13T07:23:11Z</time>
      </trkpt>
      <trkpt lat="47.28512" lon="4.98448">
        <ele>389</ele>
        <time>2012-10-13T07:23:11Z</time>
      </trkpt>
      <trkpt lat="47.28512" lon="4.98448">
        <ele>388</ele>
        <time>2012-10-13T07:23:18Z</time>
      </trkpt>
      <trkpt lat="47.28507" lon="4.98448">
        <ele>387</ele>
        <time>2012-10-13T07:24:51Z</time>
      </trkpt>
      <trkpt lat="47.28512" lon="4.98448">
        <ele>387</ele>
        <time>2012-10-13T07:24:58Z</time>
      </trkpt>
      <trkpt lat="47.28508" lon="4.98445">
        <ele>382</ele>
        <time>2012-10-13T07:25:19Z</time>
      </trkpt>
      <trkpt lat="47.28508" lon="4.98452">
        <ele>385</ele>
        <time>2012-10-13T07:25:43Z</time>
      </trkpt>
      <trkpt lat="47.28503" lon="4.98454">
        <ele>383</ele>
        <time>2012-10-13T07:25:48Z</time>
      </trkpt>
      <trkpt lat="47.28497" lon="4.98452">
        <ele>381</ele>
        <time>2012-10-13T07:25:53Z</time>
      </trkpt>
      <trkpt lat="47.28492" lon="4.98448">
        <ele>381</ele>
        <time>2012-10-13T07:25:59Z</time>
      </trkpt>
      <trkpt lat="47.28487" lon="4.98446">
        <ele>380</ele>
        <time>2012-10-13T07:26:04Z</time>
      </trkpt>
      <trkpt lat="47.28482" lon="4.98443">
        <ele>380</ele>
        <time>2012-10-13T07:26:09Z</time>
      </trkpt>
      <trkpt lat="47.28476" lon="4.9844">
        <ele>378</ele>
        <time>2012-10-13T07:26:14Z</time>
      </trkpt>
      <trkpt lat="47.28472" lon="4.98439">
        <ele>377</ele>
        <time>2012-10-13T07:26:17Z</time>
      </trkpt>
      <trkpt lat="47.28467" lon="4.98436">
        <ele>377</ele>
        <time>2012-10-13T07:26:21Z</time>
      </trkpt>
      <trkpt lat="47.28462" lon="4.98432">
        <ele>376</ele>
        <time>2012-10-13T07:26:25Z</time>
      </trkpt>
      <trkpt lat="47.28458" lon="4.98427">
        <ele>375</ele>
        <time>2012-10-13T07:26:29Z</time>
      </trkpt>
      <trkpt lat="47.28455" lon="4.98422">
        <ele>374</ele>
        <time>2012-10-13T07:26:32Z</time>
      </trkpt>
      <trkpt lat="47.2845" lon="4.98417">
        <ele>373</ele>
        <time>2012-10-13T07:26:36Z</time>
      </trkpt>
      <trkpt lat="47.28445" lon="4.98415">
        <ele>372</ele>
        <time>2012-10-13T07:26:40Z</time>
      </trkpt>
      <trkpt lat="47.28439" lon="4.98416">
        <ele>370</ele>
        <time>2012-10-13T07:26:44Z</time>
      </trkpt>
      <trkpt lat="47.28434" lon="4.98416">
        <ele>368</ele>
        <time>2012-10-13T07:26:48Z</time>
      </trkpt>
      <trkpt lat="47.28428" lon="4.98414">
        <ele>368</ele>
        <time>2012-10-13T07:26:52Z</time>
      </trkpt>
      <trkpt lat="47.28423" lon="4.98412">
        <ele>368</ele>
        <time>2012-10-13T07:26:58Z</time>
      </trkpt>
      <trkpt lat="47.28416" lon="4.98412">
        <ele>366</ele>
        <time>2012-10-13T07:27:02Z</time>
      </trkpt>
      <trkpt lat="47.28411" lon="4.98411">
        <ele>365</ele>
        <time>2012-10-13T07:27:04Z</time>
      </trkpt>
      <trkpt lat="47.28405" lon="4.98413">
        <ele>367</ele>
        <time>2012-10-13T07:27:07Z</time>
      </trkpt>
      <trkpt lat="47.28399" lon="4.98417">
        <ele>366</ele>
        <time>2012-10-13T07:27:10Z</time>
      </trkpt>
      <trkpt lat="47.28393" lon="4.98421">
        <ele>368</ele>
        <time>2012-10-13T07:27:13Z</time>
      </trkpt>
      <trkpt lat="47.28389" lon="4.98427">
        <ele>368</ele>
        <time>2012-10-13T07:27:16Z</time>
      </trkpt>
      <trkpt lat="47.28386" lon="4.98434">
        <ele>369</ele>
        <time>2012-10-13T07:27:19Z</time>
      </trkpt>
      <trkpt lat="47.28382" lon="4.98442">
        <ele>367</ele>
        <time>2012-10-13T07:27:22Z</time>
      </trkpt>
      <trkpt lat="47.28377" lon="4.98446">
        <ele>366</ele>
        <time>2012-10-13T07:27:25Z</time>
      </trkpt>
      <trkpt lat="47.28372" lon="4.98443">
        <ele>365</ele>
        <time>2012-10-13T07:27:28Z</time>
      </trkpt>
      <trkpt lat="47.28368" lon="4.98439">
        <ele>363</ele>
        <time>2012-10-13T07:27:31Z</time>
      </trkpt>
      <trkpt lat="47.28364" lon="4.98434">
        <ele>362</ele>
        <time>2012-10-13T07:27:34Z</time>
      </trkpt>
      <trkpt lat="47.28359" lon="4.98431">
        <ele>362</ele>
        <time>2012-10-13T07:27:37Z</time>
      </trkpt>
      <trkpt lat="47.28354" lon="4.98428">
        <ele>359</ele>
        <time>2012-10-13T07:27:40Z</time>
      </trkpt>
      <trkpt lat="47.28349" lon="4.98428">
        <ele>357</ele>
        <time>2012-10-13T07:27:43Z</time>
      </trkpt>
      <trkpt lat="47.28344" lon="4.9843">
        <ele>356</ele>
        <time>2012-10-13T07:27:46Z</time>
      </trkpt>
      <trkpt lat="47.28338" lon="4.98432">
        <ele>353</ele>
        <time>2012-10-13T07:27:50Z</time>
      </trkpt>
      <trkpt lat="47.28332" lon="4.98432">
        <ele>354</ele>
        <time>2012-10-13T07:27:54Z</time>
      </trkpt>
      <trkpt lat="47.28327" lon="4.98433">
        <ele>355</ele>
        <time>2012-10-13T07:28:02Z</time>
      </trkpt>
      <trkpt lat="47.28323" lon="4.98439">
        <ele>356</ele>
        <time>2012-10-13T07:28:06Z</time>
      </trkpt>
      <trkpt lat="47.28319" lon="4.98443">
        <ele>355</ele>
        <time>2012-10-13T07:28:09Z</time>
      </trkpt>
      <trkpt lat="47.28314" lon="4.98447">
        <ele>354</ele>
        <time>2012-10-13T07:28:13Z</time>
      </trkpt>
      <trkpt lat="47.28308" lon="4.98446">
        <ele>353</ele>
        <time>2012-10-13T07:28:17Z</time>
      </trkpt>
      <trkpt lat="47.28305" lon="4.98452">
        <ele>355</ele>
        <time>2012-10-13T07:28:28Z</time>
      </trkpt>
      <trkpt lat="47.28303" lon="4.9846">
        <ele>354</ele>
        <time>2012-10-13T07:28:31Z</time>
      </trkpt>
      <trkpt lat="47.28299" lon="4.98464">
        <ele>354</ele>
        <time>2012-10-13T07:28:34Z</time>
      </trkpt>
      <trkpt lat="47.28294" lon="4.98467">
        <ele>354</ele>
        <time>2012-10-13T07:28:37Z</time>
      </trkpt>
      <trkpt lat="47.28289" lon="4.98469">
        <ele>353</ele>
        <time>2012-10-13T07:28:40Z</time>
      </trkpt>
      <trkpt lat="47.28285" lon="4.98466">
        <ele>351</ele>
        <time>2012-10-13T07:28:43Z</time>
      </trkpt>
      <trkpt lat="47.28283" lon="4.98458">
        <ele>352</ele>
        <time>2012-10-13T07:28:46Z</time>
      </trkpt>
      <trkpt lat="47.28283" lon="4.9845">
        <ele>352</ele>
        <time>2012-10-13T07:28:49Z</time>
      </trkpt>
      <trkpt lat="47.28284" lon="4.98442">
        <ele>353</ele>
        <time>2012-10-13T07:28:52Z</time>
      </trkpt>
      <trkpt lat="47.28286" lon="4.98433">
        <ele>353</ele>
        <time>2012-10-13T07:28:55Z</time>
      </trkpt>
      <trkpt lat="47.28289" lon="4.98426">
        <ele>353</ele>
        <time>2012-10-13T07:28:58Z</time>
      </trkpt>
      <trkpt lat="47.28292" lon="4.98419">
        <ele>353</ele>
        <time>2012-10-13T07:29:01Z</time>
      </trkpt>
      <trkpt lat="47.28297" lon="4.98411">
        <ele>353</ele>
        <time>2012-10-13T07:29:04Z</time>
      </trkpt>
      <trkpt lat="47.28302" lon="4.98405">
        <ele>353</ele>
        <time>2012-10-13T07:29:07Z</time>
      </trkpt>
      <trkpt lat="47.28306" lon="4.984">
        <ele>353</ele>
        <time>2012-10-13T07:29:10Z</time>
      </trkpt>
      <trkpt lat="47.28311" lon="4.98395">
        <ele>353</ele>
        <time>2012-10-13T07:29:13Z</time>
      </trkpt>
      <trkpt lat="47.28316" lon="4.9839">
        <ele>353</ele>
        <time>2012-10-13T07:29:16Z</time>
      </trkpt>
      <trkpt lat="47.28321" lon="4.98385">
        <ele>352</ele>
        <time>2012-10-13T07:29:19Z</time>
      </trkpt>
      <trkpt lat="47.28326" lon="4.98381">
        <ele>351</ele>
        <time>2012-10-13T07:29:22Z</time>
      </trkpt>
      <trkpt lat="47.28331" lon="4.98378">
        <ele>352</ele>
        <time>2012-10-13T07:29:25Z</time>
      </trkpt>
      <trkpt lat="47.28336" lon="4.98375">
        <ele>352</ele>
        <time>2012-10-13T07:29:28Z</time>
      </trkpt>
      <trkpt lat="47.28341" lon="4.98372">
        <ele>352</ele>
        <time>2012-10-13T07:29:31Z</time>
      </trkpt>
      <trkpt lat="47.28346" lon="4.98368">
        <ele>351</ele>
        <time>2012-10-13T07:29:34Z</time>
      </trkpt>
      <trkpt lat="47.28351" lon="4.98364">
        <ele>353</ele>
        <time>2012-10-13T07:29:37Z</time>
      </trkpt>
      <trkpt lat="47.28357" lon="4.98359">
        <ele>352</ele>
        <time>2012-10-13T07:29:41Z</time>
      </trkpt>
      <trkpt lat="47.28361" lon="4.98355">
        <ele>352</ele>
        <time>2012-10-13T07:29:44Z</time>
      </trkpt>
      <trkpt lat="47.28366" lon="4.98351">
        <ele>351</ele>
        <time>2012-10-13T07:29:47Z</time>
      </trkpt>
      <trkpt lat="47.28371" lon="4.98347">
        <ele>351</ele>
        <time>2012-10-13T07:29:50Z</time>
      </trkpt>
      <trkpt lat="47.28375" lon="4.98343">
        <ele>352</ele>
        <time>2012-10-13T07:29:53Z</time>
      </trkpt>
      <trkpt lat="47.2838" lon="4.98338">
        <ele>355</ele>
        <time>2012-10-13T07:29:56Z</time>
      </trkpt>
      <trkpt lat="47.28384" lon="4.98333">
        <ele>355</ele>
        <time>2012-10-13T07:29:59Z</time>
      </trkpt>
      <trkpt lat="47.28388" lon="4.98329">
        <ele>355</ele>
        <time>2012-10-13T07:30:02Z</time>
      </trkpt>
      <trkpt lat="47.28393" lon="4.98325">
        <ele>355</ele>
        <time>2012-10-13T07:30:05Z</time>
      </trkpt>
      <trkpt lat="47.28396" lon="4.9832">
        <ele>354</ele>
        <time>2012-10-13T07:30:08Z</time>
      </trkpt>
      <trkpt lat="47.284" lon="4.98314">
        <ele>353</ele>
        <time>2012-10-13T07:30:12Z</time>
      </trkpt>
      <trkpt lat="47.28404" lon="4.98307">
        <ele>354</ele>
        <time>2012-10-13T07:30:15Z</time>
      </trkpt>
      <trkpt lat="47.2841" lon="4.983">
        <ele>354</ele>
        <time>2012-10-13T07:30:18Z</time>
      </trkpt>
      <trkpt lat="47.28414" lon="4.98295">
        <ele>355</ele>
        <time>2012-10-13T07:30:20Z</time>
      </trkpt>
      <trkpt lat="47.28418" lon="4.98289">
        <ele>354</ele>
        <time>2012-10-13T07:30:23Z</time>
      </trkpt>
      <trkpt lat="47.28422" lon="4.98282">
        <ele>355</ele>
        <time>2012-10-13T07:30:26Z</time>
      </trkpt>
      <trkpt lat="47.28426" lon="4.98276">
        <ele>356</ele>
        <time>2012-10-13T07:30:29Z</time>
      </trkpt>
      <trkpt lat="47.28429" lon="4.9827">
        <ele>356</ele>
        <time>2012-10-13T07:30:32Z</time>
      </trkpt>
      <trkpt lat="47.28432" lon="4.98263">
        <ele>355</ele>
        <time>2012-10-13T07:30:35Z</time>
      </trkpt>
      <trkpt lat="47.28434" lon="4.98256">
        <ele>355</ele>
        <time>2012-10-13T07:30:38Z</time>
      </trkpt>
      <trkpt lat="47.28435" lon="4.98249">
        <ele>355</ele>
        <time>2012-10-13T07:30:41Z</time>
      </trkpt>
      <trkpt lat="47.28436" lon="4.98242">
        <ele>355</ele>
        <time>2012-10-13T07:30:44Z</time>
      </trkpt>
      <trkpt lat="47.28437" lon="4.98235">
        <ele>354</ele>
        <time>2012-10-13T07:30:47Z</time>
      </trkpt>
      <trkpt lat="47.28437" lon="4.98228">
        <ele>354</ele>
        <time>2012-10-13T07:30:51Z</time>
      </trkpt>
      <trkpt lat="47.28434" lon="4.98221">
        <ele>354</ele>
        <time>2012-10-13T07:30:56Z</time>
      </trkpt>
      <trkpt lat="47.28432" lon="4.98212">
        <ele>352</ele>
        <time>2012-10-13T07:31:00Z</time>
      </trkpt>
      <trkpt lat="47.2843" lon="4.98206">
        <ele>352</ele>
        <time>2012-10-13T07:31:04Z</time>
      </trkpt>
      <trkpt lat="47.28426" lon="4.98198">
        <ele>354</ele>
        <time>2012-10-13T07:31:10Z</time>
      </trkpt>
      <trkpt lat="47.28422" lon="4.98194">
        <ele>354</ele>
        <time>2012-10-13T07:31:12Z</time>
      </trkpt>
      <trkpt lat="47.28417" lon="4.98188">
        <ele>355</ele>
        <time>2012-10-13T07:31:16Z</time>
      </trkpt>
      <trkpt lat="47.28415" lon="4.98182">
        <ele>356</ele>
        <time>2012-10-13T07:31:19Z</time>
      </trkpt>
      <trkpt lat="47.28411" lon="4.98173">
        <ele>357</ele>
        <time>2012-10-13T07:31:22Z</time>
      </trkpt>
      <trkpt lat="47.28408" lon="4.98168">
        <ele>357</ele>
        <time>2012-10-13T07:31:25Z</time>
      </trkpt>
      <trkpt lat="47.28406" lon="4.98161">
        <ele>357</ele>
        <time>2012-10-13T07:31:28Z</time>
      </trkpt>
      <trkpt lat="47.28405" lon="4.98153">
        <ele>356</ele>
        <time>2012-10-13T07:31:32Z</time>
      </trkpt>
      <trkpt lat="47.28403" lon="4.98145">
        <ele>357</ele>
        <time>2012-10-13T07:31:35Z</time>
      </trkpt>
      <trkpt lat="47.28402" lon="4.98137">
        <ele>356</ele>
        <time>2012-10-13T07:31:38Z</time>
      </trkpt>
      <trkpt lat="47.28401" lon="4.9813">
        <ele>358</ele>
        <time>2012-10-13T07:31:41Z</time>
      </trkpt>
      <trkpt lat="47.28399" lon="4.98123">
        <ele>359</ele>
        <time>2012-10-13T07:31:44Z</time>
      </trkpt>
      <trkpt lat="47.28398" lon="4.98116">
        <ele>360</ele>
        <time>2012-10-13T07:31:47Z</time>
      </trkpt>
      <trkpt lat="47.28395" lon="4.98108">
        <ele>362</ele>
        <time>2012-10-13T07:31:51Z</time>
      </trkpt>
      <trkpt lat="47.28393" lon="4.981">
        <ele>366</ele>
        <time>2012-10-13T07:31:55Z</time>
      </trkpt>
      <trkpt lat="47.28391" lon="4.98093">
        <ele>368</ele>
        <time>2012-10-13T07:31:59Z</time>
      </trkpt>
      <trkpt lat="47.28391" lon="4.98084">
        <ele>370</ele>
        <time>2012-10-13T07:32:03Z</time>
      </trkpt>
      <trkpt lat="47.28391" lon="4.98076">
        <ele>373</ele>
        <time>2012-10-13T07:32:07Z</time>
      </trkpt>
      <trkpt lat="47.2839" lon="4.98068">
        <ele>376</ele>
        <time>2012-10-13T07:32:11Z</time>
      </trkpt>
      <trkpt lat="47.2839" lon="4.9806">
        <ele>376</ele>
        <time>2012-10-13T07:32:15Z</time>
      </trkpt>
      <trkpt lat="47.28387" lon="4.98052">
        <ele>377</ele>
        <time>2012-10-13T07:32:19Z</time>
      </trkpt>
      <trkpt lat="47.28385" lon="4.98045">
        <ele>378</ele>
        <time>2012-10-13T07:32:23Z</time>
      </trkpt>
      <trkpt lat="47.2838" lon="4.98042">
        <ele>377</ele>
        <time>2012-10-13T07:32:27Z</time>
      </trkpt>
      <trkpt lat="47.28376" lon="4.98044">
        <ele>377</ele>
        <time>2012-10-13T07:32:30Z</time>
      </trkpt>
      <trkpt lat="47.28371" lon="4.98046">
        <ele>378</ele>
        <time>2012-10-13T07:32:33Z</time>
      </trkpt>
      <trkpt lat="47.28366" lon="4.98043">
        <ele>377</ele>
        <time>2012-10-13T07:32:35Z</time>
      </trkpt>
      <trkpt lat="47.28362" lon="4.98037">
        <ele>376</ele>
        <time>2012-10-13T07:32:38Z</time>
      </trkpt>
      <trkpt lat="47.28357" lon="4.98032">
        <ele>374</ele>
        <time>2012-10-13T07:32:41Z</time>
      </trkpt>
      <trkpt lat="47.28352" lon="4.98027">
        <ele>374</ele>
        <time>2012-10-13T07:32:44Z</time>
      </trkpt>
      <trkpt lat="47.28348" lon="4.98021">
        <ele>373</ele>
        <time>2012-10-13T07:32:47Z</time>
      </trkpt>
      <trkpt lat="47.28343" lon="4.98016">
        <ele>373</ele>
        <time>2012-10-13T07:32:50Z</time>
      </trkpt>
      <trkpt lat="47.28339" lon="4.98013">
        <ele>373</ele>
        <time>2012-10-13T07:32:52Z</time>
      </trkpt>
      <trkpt lat="47.28334" lon="4.98008">
        <ele>372</ele>
        <time>2012-10-13T07:32:55Z</time>
      </trkpt>
      <trkpt lat="47.28328" lon="4.98006">
        <ele>372</ele>
        <time>2012-10-13T07:32:59Z</time>
      </trkpt>
      <trkpt lat="47.28324" lon="4.98009">
        <ele>372</ele>
        <time>2012-10-13T07:33:02Z</time>
      </trkpt>
      <trkpt lat="47.28321" lon="4.98014">
        <ele>372</ele>
        <time>2012-10-13T07:33:06Z</time>
      </trkpt>
      <trkpt lat="47.28317" lon="4.9802">
        <ele>371</ele>
        <time>2012-10-13T07:33:23Z</time>
      </trkpt>
      <trkpt lat="47.28312" lon="4.98023">
        <ele>369</ele>
        <time>2012-10-13T07:33:26Z</time>
      </trkpt>
      <trkpt lat="47.28307" lon="4.98026">
        <ele>368</ele>
        <time>2012-10-13T07:33:29Z</time>
      </trkpt>
      <trkpt lat="47.28302" lon="4.98023">
        <ele>366</ele>
        <time>2012-10-13T07:33:33Z</time>
      </trkpt>
      <trkpt lat="47.28297" lon="4.98019">
        <ele>366</ele>
        <time>2012-10-13T07:33:37Z</time>
      </trkpt>
      <trkpt lat="47.28291" lon="4.98017">
        <ele>363</ele>
        <time>2012-10-13T07:33:42Z</time>
      </trkpt>
      <trkpt lat="47.28288" lon="4.98022">
        <ele>362</ele>
        <time>2012-10-13T07:33:46Z</time>
      </trkpt>
      <trkpt lat="47.28283" lon="4.98023">
        <ele>360</ele>
        <time>2012-10-13T07:33:51Z</time>
      </trkpt>
      <trkpt lat="47.28278" lon="4.98018">
        <ele>360</ele>
        <time>2012-10-13T07:33:55Z</time>
      </trkpt>
      <trkpt lat="47.28275" lon="4.98014">
        <ele>361</ele>
        <time>2012-10-13T07:33:58Z</time>
      </trkpt>
      <trkpt lat="47.2827" lon="4.98011">
        <ele>361</ele>
        <time>2012-10-13T07:34:01Z</time>
      </trkpt>
      <trkpt lat="47.28266" lon="4.98007">
        <ele>360</ele>
        <time>2012-10-13T07:34:04Z</time>
      </trkpt>
      <trkpt lat="47.2826" lon="4.98006">
        <ele>360</ele>
        <time>2012-10-13T07:34:07Z</time>
      </trkpt>
      <trkpt lat="47.28255" lon="4.98007">
        <ele>359</ele>
        <time>2012-10-13T07:34:11Z</time>
      </trkpt>
      <trkpt lat="47.2825" lon="4.98006">
        <ele>358</ele>
        <time>2012-10-13T07:34:14Z</time>
      </trkpt>
      <trkpt lat="47.28244" lon="4.98007">
        <ele>358</ele>
        <time>2012-10-13T07:34:17Z</time>
      </trkpt>
      <trkpt lat="47.28239" lon="4.98008">
        <ele>357</ele>
        <time>2012-10-13T07:34:20Z</time>
      </trkpt>
      <trkpt lat="47.28235" lon="4.98003">
        <ele>356</ele>
        <time>2012-10-13T07:34:23Z</time>
      </trkpt>
      <trkpt lat="47.28231" lon="4.97999">
        <ele>356</ele>
        <time>2012-10-13T07:34:26Z</time>
      </trkpt>
      <trkpt lat="47.28227" lon="4.97993">
        <ele>355</ele>
        <time>2012-10-13T07:34:29Z</time>
      </trkpt>
      <trkpt lat="47.28224" lon="4.97988">
        <ele>354</ele>
        <time>2012-10-13T07:34:32Z</time>
      </trkpt>
      <trkpt lat="47.28222" lon="4.97982">
        <ele>353</ele>
        <time>2012-10-13T07:34:35Z</time>
      </trkpt>
      <trkpt lat="47.2822" lon="4.97972">
        <ele>354</ele>
        <time>2012-10-13T07:34:42Z</time>
      </trkpt>
      <trkpt lat="47.2822" lon="4.97963">
        <ele>357</ele>
        <time>2012-10-13T07:34:46Z</time>
      </trkpt>
      <trkpt lat="47.28222" lon="4.97957">
        <ele>357</ele>
        <time>2012-10-13T07:34:50Z</time>
      </trkpt>
      <trkpt lat="47.28218" lon="4.97952">
        <ele>357</ele>
        <time>2012-10-13T07:34:54Z</time>
      </trkpt>
      <trkpt lat="47.28214" lon="4.97949">
        <ele>357</ele>
        <time>2012-10-13T07:34:59Z</time>
      </trkpt>
      <trkpt lat="47.28209" lon="4.97947">
        <ele>357</ele>
        <time>2012-10-13T07:35:02Z</time>
      </trkpt>
      <trkpt lat="47.28208" lon="4.97937">
        <ele>358</ele>
        <time>2012-10-13T07:35:06Z</time>
      </trkpt>
      <trkpt lat="47.28209" lon="4.9793">
        <ele>360</ele>
        <time>2012-10-13T07:35:09Z</time>
      </trkpt>
      <trkpt lat="47.28211" lon="4.97924">
        <ele>361</ele>
        <time>2012-10-13T07:35:12Z</time>
      </trkpt>
      <trkpt lat="47.28212" lon="4.97917">
        <ele>360</ele>
        <time>2012-10-13T07:35:15Z</time>
      </trkpt>
      <trkpt lat="47.2821" lon="4.97911">
        <ele>358</ele>
        <time>2012-10-13T07:35:19Z</time>
      </trkpt>
      <trkpt lat="47.28208" lon="4.97904">
        <ele>358</ele>
        <time>2012-10-13T07:35:23Z</time>
      </trkpt>
      <trkpt lat="47.28211" lon="4.97898">
        <ele>362</ele>
        <time>2012-10-13T07:35:36Z</time>
      </trkpt>
      <trkpt lat="47.28208" lon="4.97893">
        <ele>359</ele>
        <time>2012-10-13T07:35:48Z</time>
      </trkpt>
      <trkpt lat="47.28203" lon="4.97891">
        <ele>359</ele>
        <time>2012-10-13T07:35:53Z</time>
      </trkpt>
      <trkpt lat="47.28198" lon="4.97888">
        <ele>358</ele>
        <time>2012-10-13T07:35:57Z</time>
      </trkpt>
      <trkpt lat="47.28193" lon="4.97888">
        <ele>359</ele>
        <time>2012-10-13T07:36:01Z</time>
      </trkpt>
      <trkpt lat="47.28187" lon="4.97888">
        <ele>357</ele>
        <time>2012-10-13T07:36:05Z</time>
      </trkpt>
      <trkpt lat="47.28182" lon="4.97888">
        <ele>357</ele>
        <time>2012-10-13T07:36:09Z</time>
      </trkpt>
      <trkpt lat="47.28176" lon="4.97887">
        <ele>357</ele>
        <time>2012-10-13T07:36:13Z</time>
      </trkpt>
      <trkpt lat="47.28171" lon="4.97887">
        <ele>356</ele>
        <time>2012-10-13T07:36:17Z</time>
      </trkpt>
      <trkpt lat="47.28165" lon="4.9789">
        <ele>357</ele>
        <time>2012-10-13T07:36:22Z</time>
      </trkpt>
      <trkpt lat="47.28159" lon="4.97892">
        <ele>355</ele>
        <time>2012-10-13T07:36:26Z</time>
      </trkpt>
      <trkpt lat="47.28154" lon="4.97895">
        <ele>355</ele>
        <time>2012-10-13T07:36:35Z</time>
      </trkpt>
      <trkpt lat="47.28149" lon="4.97898">
        <ele>353</ele>
        <time>2012-10-13T07:36:39Z</time>
      </trkpt>
      <trkpt lat="47.28144" lon="4.97901">
        <ele>352</ele>
        <time>2012-10-13T07:36:42Z</time>
      </trkpt>
      <trkpt lat="47.28139" lon="4.97904">
        <ele>351</ele>
        <time>2012-10-13T07:36:45Z</time>
      </trkpt>
      <trkpt lat="47.28135" lon="4.97907">
        <ele>351</ele>
        <time>2012-10-13T07:36:48Z</time>
      </trkpt>
      <trkpt lat="47.28132" lon="4.97901">
        <ele>352</ele>
        <time>2012-10-13T07:36:54Z</time>
      </trkpt>
      <trkpt lat="47.28132" lon="4.97891">
        <ele>353</ele>
        <time>2012-10-13T07:36:58Z</time>
      </trkpt>
      <trkpt lat="47.28135" lon="4.97886">
        <ele>354</ele>
        <time>2012-10-13T07:37:02Z</time>
      </trkpt>
      <trkpt lat="47.2814" lon="4.97881">
        <ele>355</ele>
        <time>2012-10-13T07:37:06Z</time>
      </trkpt>
      <trkpt lat="47.28144" lon="4.97877">
        <ele>356</ele>
        <time>2012-10-13T07:37:10Z</time>
      </trkpt>
      <trkpt lat="47.28149" lon="4.97872">
        <ele>357</ele>
        <time>2012-10-13T07:37:14Z</time>
      </trkpt>
      <trkpt lat="47.28153" lon="4.97866">
        <ele>357</ele>
        <time>2012-10-13T07:37:18Z</time>
      </trkpt>
      <trkpt lat="47.28157" lon="4.9786">
        <ele>358</ele>
        <time>2012-10-13T07:37:22Z</time>
      </trkpt>
      <trkpt lat="47.2816" lon="4.97855">
        <ele>358</ele>
        <time>2012-10-13T07:37:25Z</time>
      </trkpt>
      <trkpt lat="47.28162" lon="4.97848">
        <ele>358</ele>
        <time>2012-10-13T07:37:28Z</time>
      </trkpt>
      <trkpt lat="47.28163" lon="4.97841">
        <ele>358</ele>
        <time>2012-10-13T07:37:32Z</time>
      </trkpt>
      <trkpt lat="47.28164" lon="4.97833">
        <ele>358</ele>
        <time>2012-10-13T07:37:35Z</time>
      </trkpt>
      <trkpt lat="47.28163" lon="4.97826">
        <ele>358</ele>
        <time>2012-10-13T07:37:39Z</time>
      </trkpt>
      <trkpt lat="47.28163" lon="4.97818">
        <ele>358</ele>
        <time>2012-10-13T07:37:42Z</time>
      </trkpt>
      <trkpt lat="47.28162" lon="4.9781">
        <ele>359</ele>
        <time>2012-10-13T07:37:46Z</time>
      </trkpt>
      <trkpt lat="47.2816" lon="4.97801">
        <ele>360</ele>
        <time>2012-10-13T07:37:50Z</time>
      </trkpt>
      <trkpt lat="47.28158" lon="4.97795">
        <ele>361</ele>
        <time>2012-10-13T07:37:53Z</time>
      </trkpt>
      <trkpt lat="47.28156" lon="4.97789">
        <ele>362</ele>
        <time>2012-10-13T07:37:56Z</time>
      </trkpt>
      <trkpt lat="47.28154" lon="4.97782">
        <ele>362</ele>
        <time>2012-10-13T07:37:59Z</time>
      </trkpt>
      <trkpt lat="47.28154" lon="4.97774">
        <ele>362</ele>
        <time>2012-10-13T07:38:02Z</time>
      </trkpt>
      <trkpt lat="47.28156" lon="4.97766">
        <ele>361</ele>
        <time>2012-10-13T07:38:05Z</time>
      </trkpt>
      <trkpt lat="47.28154" lon="4.97757">
        <ele>362</ele>
        <time>2012-10-13T07:38:08Z</time>
      </trkpt>
      <trkpt lat="47.28155" lon="4.97749">
        <ele>363</ele>
        <time>2012-10-13T07:38:11Z</time>
      </trkpt>
      <trkpt lat="47.28154" lon="4.97738">
        <ele>365</ele>
        <time>2012-10-13T07:38:14Z</time>
      </trkpt>
      <trkpt lat="47.28154" lon="4.9773">
        <ele>366</ele>
        <time>2012-10-13T07:38:17Z</time>
      </trkpt>
      <trkpt lat="47.28154" lon="4.97722">
        <ele>366</ele>
        <time>2012-10-13T07:38:20Z</time>
      </trkpt>
      <trkpt lat="47.28155" lon="4.97714">
        <ele>365</ele>
        <time>2012-10-13T07:38:23Z</time>
      </trkpt>
      <trkpt lat="47.28154" lon="4.97706">
        <ele>367</ele>
        <time>2012-10-13T07:38:26Z</time>
      </trkpt>
      <trkpt lat="47.28154" lon="4.97698">
        <ele>368</ele>
        <time>2012-10-13T07:38:29Z</time>
      </trkpt>
      <trkpt lat="47.28153" lon="4.9769">
        <ele>367</ele>
        <time>2012-10-13T07:38:32Z</time>
      </trkpt>
      <trkpt lat="47.28154" lon="4.97682">
        <ele>365</ele>
        <time>2012-10-13T07:38:35Z</time>
      </trkpt>
      <trkpt lat="47.28153" lon="4.97674">
        <ele>366</ele>
        <time>2012-10-13T07:38:38Z</time>
      </trkpt>
      <trkpt lat="47.28154" lon="4.97667">
        <ele>365</ele>
        <time>2012-10-13T07:38:40Z</time>
      </trkpt>
      <trkpt lat="47.28155" lon="4.97658">
        <ele>365</ele>
        <time>2012-10-13T07:38:43Z</time>
      </trkpt>
      <trkpt lat="47.28155" lon="4.9765">
        <ele>364</ele>
        <time>2012-10-13T07:38:46Z</time>
      </trkpt>
      <trkpt lat="47.28155" lon="4.97642">
        <ele>365</ele>
        <time>2012-10-13T07:38:49Z</time>
      </trkpt>
      <trkpt lat="47.28156" lon="4.97633">
        <ele>365</ele>
        <time>2012-10-13T07:38:52Z</time>
      </trkpt>
      <trkpt lat="47.28156" lon="4.97624">
        <ele>365</ele>
        <time>2012-10-13T07:38:55Z</time>
      </trkpt>
      <trkpt lat="47.28157" lon="4.97616">
        <ele>365</ele>
        <time>2012-10-13T07:38:58Z</time>
      </trkpt>
      <trkpt lat="47.28157" lon="4.97608">
        <ele>365</ele>
        <time>2012-10-13T07:39:01Z</time>
      </trkpt>
      <trkpt lat="47.28156" lon="4.97599">
        <ele>366</ele>
        <time>2012-10-13T07:39:04Z</time>
      </trkpt>
      <trkpt lat="47.28156" lon="4.9759">
        <ele>366</ele>
        <time>2012-10-13T07:39:07Z</time>
      </trkpt>
      <trkpt lat="47.28155" lon="4.97582">
        <ele>366</ele>
        <time>2012-10-13T07:39:10Z</time>
      </trkpt>
      <trkpt lat="47.28154" lon="4.97574">
        <ele>366</ele>
        <time>2012-10-13T07:39:13Z</time>
      </trkpt>
      <trkpt lat="47.28154" lon="4.97567">
        <ele>366</ele>
        <time>2012-10-13T07:39:16Z</time>
      </trkpt>
      <trkpt lat="47.28155" lon="4.97558">
        <ele>366</ele>
        <time>2012-10-13T07:39:19Z</time>
      </trkpt>
      <trkpt lat="47.28157" lon="4.97551">
        <ele>367</ele>
        <time>2012-10-13T07:39:22Z</time>
      </trkpt>
      <trkpt lat="47.28158" lon="4.97542">
        <ele>368</ele>
        <time>2012-10-13T07:39:25Z</time>
      </trkpt>
      <trkpt lat="47.28158" lon="4.97534">
        <ele>368</ele>
        <time>2012-10-13T07:39:30Z</time>
      </trkpt>
      <trkpt lat="47.28157" lon="4.97525">
        <ele>369</ele>
        <time>2012-10-13T07:39:34Z</time>
      </trkpt>
      <trkpt lat="47.28157" lon="4.97518">
        <ele>369</ele>
        <time>2012-10-13T07:39:38Z</time>
      </trkpt>
      <trkpt lat="47.28157" lon="4.9751">
        <ele>369</ele>
        <time>2012-10-13T07:39:42Z</time>
      </trkpt>
      <trkpt lat="47.28154" lon="4.97505">
        <ele>369</ele>
        <time>2012-10-13T07:39:47Z</time>
      </trkpt>
      <trkpt lat="47.28154" lon="4.97496">
        <ele>369</ele>
        <time>2012-10-13T07:39:51Z</time>
      </trkpt>
      <trkpt lat="47.28157" lon="4.97489">
        <ele>369</ele>
        <time>2012-10-13T07:39:54Z</time>
      </trkpt>
      <trkpt lat="47.28158" lon="4.97481">
        <ele>368</ele>
        <time>2012-10-13T07:39:57Z</time>
      </trkpt>
      <trkpt lat="47.28162" lon="4.97472">
        <ele>368</ele>
        <time>2012-10-13T07:40:00Z</time>
      </trkpt>
      <trkpt lat="47.2816" lon="4.97465">
        <ele>366</ele>
        <time>2012-10-13T07:40:04Z</time>
      </trkpt>
      <trkpt lat="47.28162" lon="4.97454">
        <ele>366</ele>
        <time>2012-10-13T07:40:10Z</time>
      </trkpt>
      <trkpt lat="47.28163" lon="4.97446">
        <ele>367</ele>
        <time>2012-10-13T07:40:16Z</time>
      </trkpt>
      <trkpt lat="47.28165" lon="4.9744">
        <ele>367</ele>
        <time>2012-10-13T07:40:19Z</time>
      </trkpt>
      <trkpt lat="47.28169" lon="4.97434">
        <ele>367</ele>
        <time>2012-10-13T07:40:23Z</time>
      </trkpt>
      <trkpt lat="47.28172" lon="4.97428">
        <ele>368</ele>
        <time>2012-10-13T07:40:25Z</time>
      </trkpt>
      <trkpt lat="47.28176" lon="4.97419">
        <ele>367</ele>
        <time>2012-10-13T07:40:28Z</time>
      </trkpt>
      <trkpt lat="47.28178" lon="4.9741">
        <ele>366</ele>
        <time>2012-10-13T07:40:32Z</time>
      </trkpt>
      <trkpt lat="47.2818" lon="4.97404">
        <ele>366</ele>
        <time>2012-10-13T07:40:36Z</time>
      </trkpt>
      <trkpt lat="47.28179" lon="4.97396">
        <ele>365</ele>
        <time>2012-10-13T07:40:40Z</time>
      </trkpt>
      <trkpt lat="47.28181" lon="4.97388">
        <ele>365</ele>
        <time>2012-10-13T07:40:44Z</time>
      </trkpt>
      <trkpt lat="47.28184" lon="4.97381">
        <ele>364</ele>
        <time>2012-10-13T07:40:46Z</time>
      </trkpt>
      <trkpt lat="47.28185" lon="4.97374">
        <ele>365</ele>
        <time>2012-10-13T07:40:50Z</time>
      </trkpt>
      <trkpt lat="47.28186" lon="4.97366">
        <ele>365</ele>
        <time>2012-10-13T07:40:54Z</time>
      </trkpt>
      <trkpt lat="47.28184" lon="4.97359">
        <ele>364</ele>
        <time>2012-10-13T07:40:59Z</time>
      </trkpt>
      <trkpt lat="47.28187" lon="4.97353">
        <ele>365</ele>
        <time>2012-10-13T07:41:02Z</time>
      </trkpt>
      <trkpt lat="47.28186" lon="4.97346">
        <ele>363</ele>
        <time>2012-10-13T07:41:06Z</time>
      </trkpt>
      <trkpt lat="47.28188" lon="4.9734">
        <ele>362</ele>
        <time>2012-10-13T07:41:08Z</time>
      </trkpt>
      <trkpt lat="47.28192" lon="4.97332">
        <ele>362</ele>
        <time>2012-10-13T07:41:11Z</time>
      </trkpt>
      <trkpt lat="47.28193" lon="4.97326">
        <ele>362</ele>
        <time>2012-10-13T07:41:15Z</time>
      </trkpt>
      <trkpt lat="47.28204" lon="4.97311">
        <ele>365</ele>
        <time>2012-10-13T07:41:18Z</time>
      </trkpt>
      <trkpt lat="47.28208" lon="4.97303">
        <ele>365</ele>
        <time>2012-10-13T07:41:20Z</time>
      </trkpt>
    </trkseg>
  </trk>
</gpx>